Time,TemperatureF,DewpointF,PressureIn,WindDirection,WindDirectionDegrees,WindSpeedMPH,WindSpeedGustMPH,Humidity,HourlyPrecipIn,Conditions,Clouds,dailyrainin,SoftwareType,DateUTC
2013-01-12 00:00:00,49.6,27.5,30.03,ENE,68,0.9,2.2,42,84.64,,---,0.00,VWS V14.00,2013-01-12 05:00:00,
2013-01-12 00:01:00,49.6,27.5,30.03,ENE,68,0.0,1.1,42,84.64,,---,0.00,VWS V14.00,2013-01-12 05:01:00,
2013-01-12 00:04:00,49.6,26.9,30.03,ENE,68,2.0,2.7,41,84.64,,---,0.00,VWS V14.00,2013-01-12 05:04:00,
2013-01-12 00:06:00,49.6,26.9,30.03,ENE,68,0.9,1.6,41,84.64,,---,0.00,VWS V14.00,2013-01-12 05:06:00,
2013-01-12 00:09:00,49.6,27.5,30.03,ENE,68,0.0,0.0,42,84.64,,---,0.00,VWS V14.00,2013-01-12 05:09:00,
2013-01-12 00:10:00,49.6,27.5,30.03,ENE,68,0.0,0.0,42,84.64,,---,0.00,VWS V14.00,2013-01-12 05:10:00,
2013-01-12 00:11:00,49.6,27.5,30.03,ENE,68,0.0,0.0,42,84.64,,---,0.00,VWS V14.00,2013-01-12 05:11:00,
2013-01-12 00:15:00,49.8,28.2,30.03,ENE,68,0.0,0.0,43,84.64,,---,0.00,VWS V14.00,2013-01-12 05:15:00,
2013-01-12 00:17:00,49.8,28.2,30.03,ENE,68,0.0,0.0,43,84.64,,---,0.00,VWS V14.00,2013-01-12 05:17:00,
2013-01-12 00:20:00,49.8,28.2,30.03,ENE,68,0.0,0.0,43,84.64,,---,0.00,VWS V14.00,2013-01-12 05:20:00,
2013-01-12 00:23:00,49.8,28.2,30.03,ENE,68,0.0,0.0,43,84.64,,---,0.00,VWS V14.00,2013-01-12 05:23:00,
2013-01-12 00:25:00,49.8,28.2,30.03,ENE,68,0.0,0.0,43,84.64,,---,0.00,VWS V14.00,2013-01-12 05:25:00,
2013-01-12 00:30:00,50.0,27.8,30.03,ENE,68,0.0,0.0,42,84.64,,---,0.00,VWS V14.00,2013-01-12 05:30:00,
2013-01-12 00:31:00,50.0,27.8,30.03,NW,315,0.0,0.0,42,84.64,,---,0.00,VWS V14.00,2013-01-12 05:31:00,
2013-01-12 00:34:00,50.0,27.8,30.03,WNW,292,2.7,2.7,42,84.64,,---,0.00,VWS V14.00,2013-01-12 05:34:00,
2013-01-12 00:35:00,50.0,27.8,30.03,ENE,68,3.6,3.6,42,84.64,,---,0.00,VWS V14.00,2013-01-12 05:35:00,
2013-01-12 00:37:00,50.0,27.8,30.03,ENE,68,0.0,2.5,42,84.64,,---,0.00,VWS V14.00,2013-01-12 05:37:00,
2013-01-12 00:40:00,50.2,28.0,30.03,WNW,292,3.6,3.8,42,84.64,,---,0.00,VWS V14.00,2013-01-12 05:40:00,
2013-01-12 00:42:00,50.2,28.0,30.03,North,0,0.0,1.3,42,84.64,,---,0.00,VWS V14.00,2013-01-12 05:42:00,
2013-01-12 00:43:00,50.0,27.8,30.03,NNE,22,0.0,0.0,42,84.64,,---,0.00,VWS V14.00,2013-01-12 05:43:00,
2013-01-12 00:45:00,50.2,28.0,30.03,NW,315,2.5,2.9,42,84.64,,---,0.00,VWS V14.00,2013-01-12 05:45:00,
2013-01-12 00:47:00,50.2,28.0,30.03,NW,315,0.0,0.0,42,84.64,,---,0.00,VWS V14.00,2013-01-12 05:47:00,
2013-01-12 00:48:00,50.2,28.0,30.03,NW,315,0.0,0.0,42,84.64,,---,0.00,VWS V14.00,2013-01-12 05:48:00,
2013-01-12 00:50:00,50.2,28.0,30.03,NW,315,0.0,0.0,42,84.64,,---,0.00,VWS V14.00,2013-01-12 05:50:00,
2013-01-12 00:53:00,50.2,28.0,30.03,WNW,292,0.0,0.0,42,84.64,,---,0.00,VWS V14.00,2013-01-12 05:53:00,
2013-01-12 00:57:00,50.2,27.4,30.03,WNW,292,1.3,2.5,41,84.64,,---,0.00,VWS V14.00,2013-01-12 05:57:00,
2013-01-12 01:00:00,50.2,27.4,30.03,WNW,292,0.0,0.9,41,84.64,,---,0.00,VWS V14.00,2013-01-12 06:00:00,
2013-01-12 01:01:00,50.2,27.4,30.03,WNW,292,0.0,0.0,41,84.64,,---,0.00,VWS V14.00,2013-01-12 06:01:00,
2013-01-12 01:02:00,50.2,27.4,30.03,WNW,292,2.0,3.4,41,84.64,,---,0.00,VWS V14.00,2013-01-12 06:02:00,
2013-01-12 01:05:00,50.2,27.4,30.03,WNW,292,0.0,0.0,41,84.64,,---,0.00,VWS V14.00,2013-01-12 06:05:00,
2013-01-12 01:10:00,50.2,27.4,30.03,WNW,292,0.0,0.0,41,84.64,,---,0.00,VWS V14.00,2013-01-12 06:10:00,
2013-01-12 01:12:00,50.2,27.4,30.03,WNW,292,0.0,0.0,41,84.64,,---,0.00,VWS V14.00,2013-01-12 06:12:00,
2013-01-12 01:17:00,50.2,28.0,30.03,WNW,292,1.6,3.6,42,84.64,,---,0.00,VWS V14.00,2013-01-12 06:17:00,
2013-01-12 01:23:00,50.2,28.0,30.00,NW,315,2.0,2.0,42,84.64,,---,0.00,VWS V14.00,2013-01-12 06:23:00,
2013-01-12 01:24:00,50.2,27.4,30.00,NW,315,0.0,2.2,41,84.64,,---,0.00,VWS V14.00,2013-01-12 06:24:00,
2013-01-12 01:28:00,50.2,27.4,30.00,NW,315,0.0,0.0,41,84.64,,---,0.00,VWS V14.00,2013-01-12 06:28:00,
2013-01-12 01:31:00,50.2,27.4,30.00,WNW,292,0.0,0.0,41,84.64,,---,0.00,VWS V14.00,2013-01-12 06:31:00,
2013-01-12 01:34:00,50.2,27.4,30.00,WNW,292,0.0,0.0,41,84.64,,---,0.00,VWS V14.00,2013-01-12 06:34:00,
2013-01-12 01:37:00,50.2,27.4,30.00,WNW,292,0.0,0.0,41,84.64,,---,0.00,VWS V14.00,2013-01-12 06:37:00,
2013-01-12 01:39:00,50.2,27.4,30.00,WNW,292,1.1,1.1,41,84.64,,---,0.00,VWS V14.00,2013-01-12 06:39:00,
2013-01-12 01:40:00,50.2,27.4,30.00,WNW,292,0.9,1.3,41,84.64,,---,0.00,VWS V14.00,2013-01-12 06:40:00,
2013-01-12 01:42:00,50.2,27.4,30.00,WNW,292,0.0,1.1,41,84.64,,---,0.00,VWS V14.00,2013-01-12 06:42:00,
2013-01-12 01:44:00,50.2,27.4,30.00,WNW,292,1.1,2.0,41,84.64,,---,0.00,VWS V14.00,2013-01-12 06:44:00,
2013-01-12 01:49:00,50.2,27.4,30.00,WNW,292,0.0,0.0,41,84.64,,---,0.00,VWS V14.00,2013-01-12 06:49:00,
2013-01-12 01:53:00,50.2,27.4,30.03,WNW,292,0.0,0.0,41,84.64,,---,0.00,VWS V14.00,2013-01-12 06:53:00,
2013-01-12 01:54:00,50.2,27.4,30.03,WNW,292,0.0,0.0,41,84.64,,---,0.00,VWS V14.00,2013-01-12 06:54:00,
2013-01-12 01:55:00,50.2,27.4,30.03,WNW,292,0.0,0.0,41,84.64,,---,0.00,VWS V14.00,2013-01-12 06:55:00,
2013-01-12 01:58:00,50.2,27.4,30.03,WNW,292,0.0,0.0,41,84.64,,---,0.00,VWS V14.00,2013-01-12 06:58:00,
2013-01-12 01:59:00,50.2,28.0,30.03,WNW,292,0.0,0.0,42,84.64,,---,0.00,VWS V14.00,2013-01-12 06:59:00,
2013-01-12 02:01:00,50.2,28.0,30.03,WNW,292,0.0,0.0,42,84.64,,---,0.00,VWS V14.00,2013-01-12 07:01:00,
2013-01-12 02:05:00,50.2,28.0,30.03,WNW,292,0.0,0.0,42,84.64,,---,0.00,VWS V14.00,2013-01-12 07:05:00,
2013-01-12 02:06:00,50.2,28.0,30.03,WNW,292,0.0,0.0,42,84.64,,---,0.00,VWS V14.00,2013-01-12 07:06:00,
2013-01-12 02:10:00,50.2,27.4,30.03,NW,315,0.0,2.7,41,84.64,,---,0.00,VWS V14.00,2013-01-12 07:10:00,
2013-01-12 02:11:00,50.2,27.4,30.03,NW,315,2.5,2.5,41,84.64,,---,0.00,VWS V14.00,2013-01-12 07:11:00,
2013-01-12 02:13:00,50.2,27.4,30.03,WNW,292,0.0,1.3,41,84.64,,---,0.00,VWS V14.00,2013-01-12 07:13:00,
2013-01-12 02:15:00,50.2,27.4,30.03,WNW,292,0.0,0.0,41,84.64,,---,0.00,VWS V14.00,2013-01-12 07:15:00,
2013-01-12 02:18:00,50.2,27.4,30.03,WNW,292,0.0,0.0,41,84.64,,---,0.00,VWS V14.00,2013-01-12 07:18:00,
2013-01-12 02:20:00,50.2,27.4,30.03,NW,315,2.2,2.2,41,84.64,,---,0.00,VWS V14.00,2013-01-12 07:20:00,
2013-01-12 02:22:00,50.2,27.4,30.00,WNW,292,1.6,3.1,41,84.64,,---,0.00,VWS V14.00,2013-01-12 07:22:00,
2013-01-12 02:23:00,50.2,27.4,30.00,WNW,292,0.0,2.7,41,84.64,,---,0.00,VWS V14.00,2013-01-12 07:23:00,
2013-01-12 02:25:00,50.2,27.4,30.00,WNW,292,2.0,3.1,41,84.64,,---,0.00,VWS V14.00,2013-01-12 07:25:00,
2013-01-12 02:27:00,50.2,27.4,30.00,WNW,292,0.0,0.0,41,84.64,,---,0.00,VWS V14.00,2013-01-12 07:27:00,
2013-01-12 02:29:00,50.2,27.4,30.00,WNW,292,2.0,3.6,41,84.64,,---,0.00,VWS V14.00,2013-01-12 07:29:00,
2013-01-12 02:32:00,50.2,27.4,30.00,WNW,292,0.0,2.0,41,84.64,,---,0.00,VWS V14.00,2013-01-12 07:32:00,
2013-01-12 02:34:00,50.0,27.2,30.00,NW,315,0.0,2.5,41,84.64,,---,0.00,VWS V14.00,2013-01-12 07:34:00,
2013-01-12 02:35:00,50.0,27.2,30.00,NW,315,0.0,0.0,41,84.64,,---,0.00,VWS V14.00,2013-01-12 07:35:00,
2013-01-12 02:39:00,50.2,27.4,30.03,NW,315,3.4,3.4,41,84.64,,---,0.00,VWS V14.00,2013-01-12 07:39:00,
2013-01-12 02:40:00,50.2,27.4,30.03,NW,315,0.0,3.4,41,84.64,,---,0.00,VWS V14.00,2013-01-12 07:40:00,
2013-01-12 02:45:00,50.2,28.0,30.03,NW,315,2.5,2.9,42,84.64,,---,0.00,VWS V14.00,2013-01-12 07:45:00,
2013-01-12 02:46:00,50.2,28.0,30.03,NW,315,2.7,3.4,42,84.64,,---,0.00,VWS V14.00,2013-01-12 07:46:00,
2013-01-12 02:48:00,50.2,28.0,30.03,NW,315,2.7,3.6,42,84.64,,---,0.00,VWS V14.00,2013-01-12 07:48:00,
2013-01-12 02:51:00,50.2,28.0,30.03,NW,315,2.2,3.8,42,84.64,,---,0.00,VWS V14.00,2013-01-12 07:51:00,
2013-01-12 02:52:00,50.2,28.0,30.03,NNW,338,2.5,2.5,42,84.64,,---,0.00,VWS V14.00,2013-01-12 07:52:00,
2013-01-12 02:54:00,50.2,28.0,30.03,NW,315,2.5,3.6,42,84.64,,---,0.00,VWS V14.00,2013-01-12 07:54:00,
2013-01-12 02:56:00,50.2,28.0,30.03,NW,315,3.4,3.4,42,84.64,,---,0.00,VWS V14.00,2013-01-12 07:56:00,
2013-01-12 02:58:00,50.2,28.0,30.03,NW,315,2.5,3.6,42,84.64,,---,0.00,VWS V14.00,2013-01-12 07:58:00,
2013-01-12 03:00:00,50.2,28.0,30.03,NW,315,4.3,4.7,42,84.64,,---,0.00,VWS V14.00,2013-01-12 08:00:00,
2013-01-12 03:03:00,50.2,28.0,30.03,WNW,292,2.5,3.8,42,84.64,,---,0.00,VWS V14.00,2013-01-12 08:03:00,
2013-01-12 03:05:00,50.2,28.6,30.03,NW,315,2.0,3.8,43,84.64,,---,0.00,VWS V14.00,2013-01-12 08:05:00,
2013-01-12 03:06:00,50.2,28.6,30.03,WNW,292,2.7,2.7,43,84.64,,---,0.00,VWS V14.00,2013-01-12 08:06:00,
2013-01-12 03:07:00,50.2,28.6,30.03,WNW,292,2.7,3.1,43,84.64,,---,0.00,VWS V14.00,2013-01-12 08:07:00,
2013-01-12 03:11:00,50.2,28.0,30.03,NW,315,1.1,4.7,42,84.64,,---,0.00,VWS V14.00,2013-01-12 08:11:00,
2013-01-12 03:12:00,50.2,28.0,30.03,WNW,292,2.5,3.8,42,84.64,,---,0.00,VWS V14.00,2013-01-12 08:12:00,
2013-01-12 03:14:00,50.2,28.0,30.03,WNW,292,2.9,3.1,42,84.64,,---,0.00,VWS V14.00,2013-01-12 08:14:00,
2013-01-12 03:16:00,50.2,28.0,30.03,NW,315,4.3,4.3,42,84.64,,---,0.00,VWS V14.00,2013-01-12 08:16:00,
2013-01-12 03:18:00,50.2,28.0,30.03,West,270,4.9,6.0,42,84.64,,---,0.00,VWS V14.00,2013-01-12 08:18:00,
2013-01-12 03:19:00,50.2,28.0,30.03,NW,315,4.3,4.9,42,84.64,,---,0.00,VWS V14.00,2013-01-12 08:19:00,
2013-01-12 03:23:00,50.0,28.4,30.03,NNE,22,4.0,4.0,43,84.64,,---,0.00,VWS V14.00,2013-01-12 08:23:00,
2013-01-12 03:24:00,50.0,28.4,30.03,WNW,292,2.7,4.0,43,84.64,,---,0.00,VWS V14.00,2013-01-12 08:24:00,
2013-01-12 03:25:00,50.0,28.4,30.03,NW,315,2.7,3.6,43,84.64,,---,0.00,VWS V14.00,2013-01-12 08:25:00,
2013-01-12 03:30:00,50.0,28.4,30.03,NNW,338,2.2,4.3,43,84.64,,---,0.00,VWS V14.00,2013-01-12 08:30:00,
2013-01-12 03:32:00,50.0,27.8,30.03,NW,315,0.0,2.9,42,84.64,,---,0.00,VWS V14.00,2013-01-12 08:32:00,
2013-01-12 03:33:00,50.0,27.8,30.03,NW,315,1.3,4.5,42,84.64,,---,0.00,VWS V14.00,2013-01-12 08:33:00,
2013-01-12 03:34:00,50.0,27.8,30.03,NW,315,0.0,1.3,42,84.64,,---,0.00,VWS V14.00,2013-01-12 08:34:00,
2013-01-12 03:36:00,50.0,27.8,30.03,NW,315,2.0,2.0,42,84.64,,---,0.00,VWS V14.00,2013-01-12 08:36:00,
2013-01-12 03:40:00,50.0,28.4,30.03,NNW,338,2.9,3.8,43,84.64,,---,0.00,VWS V14.00,2013-01-12 08:40:00,
2013-01-12 03:41:00,50.0,28.4,30.03,NW,315,1.3,3.8,43,84.64,,---,0.00,VWS V14.00,2013-01-12 08:41:00,
2013-01-12 03:43:00,50.0,28.4,30.03,NW,315,2.9,3.4,43,84.64,,---,0.00,VWS V14.00,2013-01-12 08:43:00,
2013-01-12 03:46:00,50.0,28.4,30.03,NW,315,2.7,3.6,43,84.64,,---,0.00,VWS V14.00,2013-01-12 08:46:00,
2013-01-12 03:47:00,50.0,28.4,30.03,NNW,338,3.8,4.9,43,84.64,,---,0.00,VWS V14.00,2013-01-12 08:47:00,
2013-01-12 03:49:00,49.8,28.2,30.03,NNW,338,2.5,2.5,43,84.64,,---,0.00,VWS V14.00,2013-01-12 08:49:00,
2013-01-12 03:51:00,49.8,28.2,30.03,NNW,338,4.9,4.9,43,84.64,,---,0.00,VWS V14.00,2013-01-12 08:51:00,
2013-01-12 03:54:00,49.8,28.2,30.03,WNW,292,1.3,3.8,43,84.64,,---,0.00,VWS V14.00,2013-01-12 08:54:00,
2013-01-12 03:56:00,49.8,28.2,30.03,WNW,292,4.3,4.3,43,84.64,,---,0.00,VWS V14.00,2013-01-12 08:56:00,
2013-01-12 03:57:00,49.8,28.2,30.03,NNW,338,2.0,4.3,43,84.64,,---,0.00,VWS V14.00,2013-01-12 08:57:00,
2013-01-12 04:01:00,49.8,28.2,30.03,NW,315,2.5,4.7,43,84.64,,---,0.00,VWS V14.00,2013-01-12 09:01:00,
2013-01-12 04:02:00,49.8,28.2,30.03,NW,315,2.2,2.5,43,84.64,,---,0.00,VWS V14.00,2013-01-12 09:02:00,
2013-01-12 04:03:00,49.8,28.2,30.03,NNW,338,3.4,3.4,43,84.64,,---,0.00,VWS V14.00,2013-01-12 09:03:00,
2013-01-12 04:04:00,49.8,28.2,30.03,NNW,338,0.9,3.4,43,84.64,,---,0.00,VWS V14.00,2013-01-12 09:04:00,
2013-01-12 04:07:00,49.8,28.2,30.03,North,0,2.9,3.4,43,84.64,,---,0.00,VWS V14.00,2013-01-12 09:07:00,
2013-01-12 04:08:00,49.8,28.2,30.03,North,0,2.2,4.0,43,84.64,,---,0.00,VWS V14.00,2013-01-12 09:08:00,
2013-01-12 04:09:00,49.8,28.2,30.03,North,0,3.4,3.4,43,84.64,,---,0.00,VWS V14.00,2013-01-12 09:09:00,
2013-01-12 04:14:00,49.6,28.6,30.03,NNW,338,4.9,4.9,44,84.64,,---,0.00,VWS V14.00,2013-01-12 09:14:00,
2013-01-12 04:15:00,49.8,28.8,30.03,NNW,338,2.5,5.8,44,84.64,,---,0.00,VWS V14.00,2013-01-12 09:15:00,
2013-01-12 04:16:00,49.8,28.8,30.03,NW,315,5.6,5.6,44,84.64,,---,0.00,VWS V14.00,2013-01-12 09:16:00,
2013-01-12 04:18:00,49.6,28.6,30.03,NNE,22,2.9,5.4,44,84.64,,---,0.00,VWS V14.00,2013-01-12 09:18:00,
2013-01-12 04:20:00,49.6,28.6,30.03,NNW,338,3.4,4.0,44,84.64,,---,0.00,VWS V14.00,2013-01-12 09:20:00,
2013-01-12 04:21:00,49.6,28.6,30.00,NNW,338,3.1,4.3,44,84.64,,---,0.00,VWS V14.00,2013-01-12 09:21:00,
2013-01-12 04:23:00,49.6,29.2,30.00,NNW,338,2.7,3.8,45,84.64,,---,0.00,VWS V14.00,2013-01-12 09:23:00,
2013-01-12 04:26:00,49.6,29.2,30.00,NNW,338,3.1,3.6,45,84.64,,---,0.00,VWS V14.00,2013-01-12 09:26:00,
2013-01-12 04:29:00,49.5,29.0,30.00,NW,315,4.3,5.6,45,84.64,,---,0.00,VWS V14.00,2013-01-12 09:29:00,
2013-01-12 04:30:00,49.5,29.0,30.00,NNW,338,4.3,7.2,45,84.64,,---,0.00,VWS V14.00,2013-01-12 09:30:00,
2013-01-12 04:34:00,49.5,29.6,30.00,NW,315,2.7,3.4,46,84.64,,---,0.00,VWS V14.00,2013-01-12 09:34:00,
2013-01-12 04:35:00,49.5,29.6,30.00,North,0,4.0,4.0,46,84.64,,---,0.00,VWS V14.00,2013-01-12 09:35:00,
2013-01-12 04:36:00,49.5,29.0,30.03,WNW,292,3.8,4.0,45,84.64,,---,0.00,VWS V14.00,2013-01-12 09:36:00,
2013-01-12 04:38:00,49.5,29.6,30.03,NW,315,4.0,4.9,46,84.64,,---,0.00,VWS V14.00,2013-01-12 09:38:00,
2013-01-12 04:40:00,49.5,29.6,30.03,WNW,292,2.9,4.7,46,84.64,,---,0.00,VWS V14.00,2013-01-12 09:40:00,
2013-01-12 04:43:00,49.5,29.6,30.03,NNW,338,4.0,4.0,46,84.64,,---,0.00,VWS V14.00,2013-01-12 09:43:00,
2013-01-12 04:44:00,49.5,29.6,30.03,WNW,292,2.9,4.3,46,84.64,,---,0.00,VWS V14.00,2013-01-12 09:44:00,
2013-01-12 04:46:00,49.5,29.6,30.03,NNW,338,5.8,5.8,46,84.64,,---,0.00,VWS V14.00,2013-01-12 09:46:00,
2013-01-12 04:47:00,49.3,29.4,30.03,NW,315,2.0,5.8,46,84.64,,---,0.00,VWS V14.00,2013-01-12 09:47:00,
2013-01-12 04:48:00,49.3,29.4,30.03,WNW,292,2.5,3.8,46,84.64,,---,0.00,VWS V14.00,2013-01-12 09:48:00,
2013-01-12 04:51:00,49.3,29.9,30.00,NW,315,1.6,4.0,47,84.64,,---,0.00,VWS V14.00,2013-01-12 09:51:00,
2013-01-12 04:52:00,49.3,29.9,30.00,NW,315,2.9,3.8,47,84.64,,---,0.00,VWS V14.00,2013-01-12 09:52:00,
2013-01-12 04:53:00,49.3,29.9,30.00,WNW,292,3.6,3.6,47,84.64,,---,0.00,VWS V14.00,2013-01-12 09:53:00,
2013-01-12 04:57:00,49.3,29.9,30.00,NW,315,2.2,3.4,47,84.64,,---,0.00,VWS V14.00,2013-01-12 09:57:00,
2013-01-12 04:58:00,49.3,29.9,30.00,NW,315,2.9,2.9,47,84.64,,---,0.00,VWS V14.00,2013-01-12 09:58:00,
2013-01-12 05:00:00,49.3,29.9,30.00,NW,315,4.0,4.9,47,84.64,,---,0.00,VWS V14.00,2013-01-12 10:00:00,
2013-01-12 05:03:00,49.3,29.9,30.00,WNW,292,2.5,5.4,47,84.64,,---,0.00,VWS V14.00,2013-01-12 10:03:00,
2013-01-12 05:05:00,49.3,29.9,30.00,WNW,292,5.6,5.6,47,84.64,,---,0.00,VWS V14.00,2013-01-12 10:05:00,
2013-01-12 05:08:00,49.3,29.9,30.03,NNE,22,7.8,7.8,47,84.64,,---,0.00,VWS V14.00,2013-01-12 10:08:00,
2013-01-12 05:09:00,49.3,29.9,30.03,NNW,338,7.2,7.8,47,84.64,,---,0.00,VWS V14.00,2013-01-12 10:09:00,
2013-01-12 05:11:00,49.3,29.9,30.03,NNE,22,3.8,4.7,47,84.64,,---,0.00,VWS V14.00,2013-01-12 10:11:00,
2013-01-12 05:15:00,49.3,29.9,30.03,North,0,3.1,4.0,47,84.64,,---,0.00,VWS V14.00,2013-01-12 10:15:00,
2013-01-12 05:16:00,49.1,29.8,30.03,NW,315,6.0,6.0,47,84.64,,---,0.00,VWS V14.00,2013-01-12 10:16:00,
2013-01-12 05:17:00,49.1,29.8,30.03,NNE,22,2.9,6.0,47,84.64,,---,0.00,VWS V14.00,2013-01-12 10:17:00,
2013-01-12 05:19:00,49.1,29.8,30.03,North,0,3.1,5.6,47,84.64,,---,0.00,VWS V14.00,2013-01-12 10:19:00,
2013-01-12 05:21:00,49.1,29.8,30.03,West,270,3.8,4.3,47,84.64,,---,0.00,VWS V14.00,2013-01-12 10:21:00,
2013-01-12 05:22:00,49.1,29.8,30.03,WNW,292,4.3,4.3,47,84.64,,---,0.00,VWS V14.00,2013-01-12 10:22:00,
2013-01-12 05:25:00,49.1,30.3,30.03,NNW,338,2.5,6.3,48,84.64,,---,0.00,VWS V14.00,2013-01-12 10:25:00,
2013-01-12 05:27:00,49.1,30.3,30.03,NNW,338,2.5,4.0,48,84.64,,---,0.00,VWS V14.00,2013-01-12 10:27:00,
2013-01-12 05:28:00,49.1,30.3,30.03,NW,315,3.1,3.1,48,84.64,,---,0.00,VWS V14.00,2013-01-12 10:28:00,
2013-01-12 05:29:00,49.1,30.3,30.03,North,0,2.0,4.3,48,84.64,,---,0.00,VWS V14.00,2013-01-12 10:29:00,
2013-01-12 05:31:00,49.1,30.3,30.03,NW,315,3.1,3.8,48,84.64,,---,0.00,VWS V14.00,2013-01-12 10:31:00,
2013-01-12 05:32:00,49.1,30.3,30.03,WNW,292,3.4,4.3,48,84.64,,---,0.00,VWS V14.00,2013-01-12 10:32:00,
2013-01-12 05:33:00,49.1,30.3,30.03,WNW,292,3.4,6.5,48,84.64,,---,0.00,VWS V14.00,2013-01-12 10:33:00,
2013-01-12 05:35:00,49.1,30.3,30.03,WNW,292,2.7,4.7,48,84.64,,---,0.00,VWS V14.00,2013-01-12 10:35:00,
2013-01-12 05:37:00,49.1,30.3,30.06,West,270,4.9,4.9,48,84.64,,---,0.00,VWS V14.00,2013-01-12 10:37:00,
2013-01-12 05:40:00,49.1,30.3,30.06,WNW,292,2.7,4.0,48,84.64,,---,0.00,VWS V14.00,2013-01-12 10:40:00,
2013-01-12 05:41:00,49.1,30.3,30.06,WNW,292,2.7,2.7,48,84.64,,---,0.00,VWS V14.00,2013-01-12 10:41:00,
2013-01-12 05:42:00,49.1,30.3,30.06,NW,315,3.1,6.3,48,84.64,,---,0.00,VWS V14.00,2013-01-12 10:42:00,
2013-01-12 05:46:00,48.9,30.1,30.06,WSW,248,3.6,5.4,48,84.64,,---,0.00,VWS V14.00,2013-01-12 10:46:00,
2013-01-12 05:47:00,48.9,30.1,30.06,WNW,292,3.8,5.8,48,84.64,,---,0.00,VWS V14.00,2013-01-12 10:47:00,
2013-01-12 05:50:00,48.9,30.1,30.06,WSW,248,3.4,4.3,48,84.64,,---,0.00,VWS V14.00,2013-01-12 10:50:00,
2013-01-12 05:51:00,48.9,30.1,30.06,WNW,292,5.4,5.4,48,84.64,,---,0.00,VWS V14.00,2013-01-12 10:51:00,
2013-01-12 05:54:00,48.9,30.1,30.06,NNW,338,4.0,6.0,48,84.64,,---,0.00,VWS V14.00,2013-01-12 10:54:00,
2013-01-12 05:56:00,48.9,30.1,30.06,NNW,338,3.8,7.4,48,84.64,,---,0.00,VWS V14.00,2013-01-12 10:56:00,
2013-01-12 05:57:00,48.7,30.5,30.06,WSW,248,2.7,4.3,49,84.64,,---,0.00,VWS V14.00,2013-01-12 10:57:00,
2013-01-12 05:58:00,48.7,30.5,30.06,NW,315,4.0,5.8,49,84.64,,---,0.00,VWS V14.00,2013-01-12 10:58:00,
2013-01-12 06:00:00,48.9,30.6,30.06,NW,315,5.4,5.4,49,84.64,,---,0.00,VWS V14.00,2013-01-12 11:00:00,
2013-01-12 06:02:00,48.9,30.6,30.06,NNW,338,5.8,5.8,49,84.64,,---,0.00,VWS V14.00,2013-01-12 11:02:00,
2013-01-12 06:03:00,48.9,30.6,30.06,NNW,338,4.0,5.8,49,84.64,,---,0.00,VWS V14.00,2013-01-12 11:03:00,
2013-01-12 06:04:00,48.7,30.5,30.06,NW,315,0.0,4.0,49,84.64,,---,0.00,VWS V14.00,2013-01-12 11:04:00,
2013-01-12 06:07:00,48.9,31.1,30.06,North,0,3.4,3.8,50,84.64,,---,0.00,VWS V14.00,2013-01-12 11:07:00,
2013-01-12 06:09:00,48.9,31.1,30.06,NNW,338,3.1,6.0,50,84.64,,---,0.00,VWS V14.00,2013-01-12 11:09:00,
2013-01-12 06:12:00,48.9,31.1,30.06,NNW,338,0.0,3.6,50,84.64,,---,0.00,VWS V14.00,2013-01-12 11:12:00,
2013-01-12 06:13:00,48.9,31.1,30.06,NW,315,0.9,0.9,50,84.64,,---,0.00,VWS V14.00,2013-01-12 11:13:00,
2013-01-12 06:14:00,48.9,31.1,30.06,NNE,22,2.7,3.4,50,84.64,,---,0.00,VWS V14.00,2013-01-12 11:14:00,
2013-01-12 06:15:00,48.9,31.1,30.06,NNE,22,6.3,6.3,50,84.64,,---,0.00,VWS V14.00,2013-01-12 11:15:00,
2013-01-12 06:19:00,48.9,31.1,30.06,NNE,22,2.9,3.1,50,84.64,,---,0.00,VWS V14.00,2013-01-12 11:19:00,
2013-01-12 06:20:00,48.9,31.1,30.06,North,0,4.3,4.3,50,84.64,,---,0.00,VWS V14.00,2013-01-12 11:20:00,
2013-01-12 06:24:00,48.7,31.0,30.06,NNW,338,2.5,3.8,50,84.64,,---,0.00,VWS V14.00,2013-01-12 11:24:00,
2013-01-12 06:25:00,48.7,31.0,30.06,NNW,338,2.5,3.1,50,84.64,,---,0.00,VWS V14.00,2013-01-12 11:25:00,
2013-01-12 06:26:00,48.7,31.0,30.06,WNW,292,2.0,2.5,50,84.64,,---,0.00,VWS V14.00,2013-01-12 11:26:00,
2013-01-12 06:29:00,48.7,31.0,30.06,NW,315,2.9,4.3,50,84.64,,---,0.00,VWS V14.00,2013-01-12 11:29:00,
2013-01-12 06:30:00,48.7,31.0,30.06,NNW,338,4.7,4.7,50,84.64,,---,0.00,VWS V14.00,2013-01-12 11:30:00,
2013-01-12 06:31:00,48.7,31.0,30.06,NNW,338,1.6,4.7,50,84.64,,---,0.00,VWS V14.00,2013-01-12 11:31:00,
2013-01-12 06:32:00,48.7,31.0,30.06,NNW,338,2.0,4.0,50,84.64,,---,0.00,VWS V14.00,2013-01-12 11:32:00,
2013-01-12 06:35:00,48.7,31.0,30.06,NW,315,2.2,6.5,50,84.64,,---,0.00,VWS V14.00,2013-01-12 11:35:00,
2013-01-12 06:36:00,48.7,31.0,30.09,WNW,292,0.0,2.2,50,84.64,,---,0.00,VWS V14.00,2013-01-12 11:36:00,
2013-01-12 06:37:00,48.7,31.0,30.09,NW,315,2.9,2.9,50,84.64,,---,0.00,VWS V14.00,2013-01-12 11:37:00,
2013-01-12 06:40:00,48.7,31.0,30.09,WNW,292,3.1,3.1,50,84.64,,---,0.00,VWS V14.00,2013-01-12 11:40:00,
2013-01-12 06:41:00,48.7,31.0,30.09,NNW,338,2.5,3.6,50,84.64,,---,0.00,VWS V14.00,2013-01-12 11:41:00,
2013-01-12 06:45:00,48.7,31.0,30.09,NNW,338,3.6,6.0,50,84.64,,---,0.00,VWS V14.00,2013-01-12 11:45:00,
2013-01-12 06:47:00,48.7,31.0,30.09,NNW,338,4.0,4.3,50,84.64,,---,0.00,VWS V14.00,2013-01-12 11:47:00,
2013-01-12 06:48:00,48.7,31.0,30.09,WNW,292,3.1,4.3,50,84.64,,---,0.00,VWS V14.00,2013-01-12 11:48:00,
2013-01-12 06:50:00,48.7,31.0,30.09,NW,315,3.1,5.6,50,84.64,,---,0.00,VWS V14.00,2013-01-12 11:50:00,
2013-01-12 06:53:00,48.7,31.0,30.09,WNW,292,2.0,4.3,50,84.64,,---,0.00,VWS V14.00,2013-01-12 11:53:00,
2013-01-12 06:54:00,48.7,31.0,30.09,NNW,338,1.1,4.9,50,84.64,,---,0.00,VWS V14.00,2013-01-12 11:54:00,
2013-01-12 06:55:00,48.7,31.0,30.09,North,0,3.4,4.3,50,84.64,,---,0.00,VWS V14.00,2013-01-12 11:55:00,
2013-01-12 06:56:00,48.7,31.0,30.09,NNW,338,2.9,4.9,50,84.64,,---,0.00,VWS V14.00,2013-01-12 11:56:00,
2013-01-12 07:00:00,48.7,31.0,30.09,NNW,338,2.0,3.8,50,84.64,,---,0.00,VWS V14.00,2013-01-12 12:00:00,
2013-01-12 07:01:00,48.7,31.0,30.09,North,0,3.1,3.1,50,84.64,,---,0.00,VWS V14.00,2013-01-12 12:01:00,
2013-01-12 07:02:00,48.7,31.0,30.09,NNW,338,4.0,4.0,50,84.64,,---,0.00,VWS V14.00,2013-01-12 12:02:00,
2013-01-12 07:03:00,48.7,31.0,30.09,NNW,338,2.5,4.0,50,84.64,,---,0.00,VWS V14.00,2013-01-12 12:03:00,
2013-01-12 07:07:00,48.7,31.0,30.09,NNW,338,2.0,2.7,50,84.64,,---,0.00,VWS V14.00,2013-01-12 12:07:00,
2013-01-12 07:08:00,48.7,31.0,30.09,NNW,338,2.7,2.7,50,84.64,,---,0.00,VWS V14.00,2013-01-12 12:08:00,
2013-01-12 07:09:00,48.7,31.0,30.09,NW,315,0.0,3.4,50,84.64,,---,0.00,VWS V14.00,2013-01-12 12:09:00,
2013-01-12 07:10:00,48.7,31.0,30.09,North,0,2.2,3.1,50,84.64,,---,0.00,VWS V14.00,2013-01-12 12:10:00,
2013-01-12 07:12:00,48.7,31.0,30.09,NNW,338,2.5,4.3,50,84.64,,---,0.00,VWS V14.00,2013-01-12 12:12:00,
2013-01-12 07:13:00,48.7,31.0,30.09,NNW,338,2.9,2.9,50,84.64,,---,0.00,VWS V14.00,2013-01-12 12:13:00,
2013-01-12 07:14:00,48.7,31.0,30.09,NW,315,3.8,3.8,50,84.64,,---,0.00,VWS V14.00,2013-01-12 12:14:00,
2013-01-12 07:18:00,48.7,31.0,30.09,WNW,292,3.1,3.4,50,84.64,,---,0.00,VWS V14.00,2013-01-12 12:18:00,
2013-01-12 07:19:00,48.7,31.0,30.09,NNW,338,2.9,3.1,50,84.64,,---,0.00,VWS V14.00,2013-01-12 12:19:00,
2013-01-12 07:20:00,48.7,31.0,30.09,NNW,338,0.0,2.9,50,84.64,,---,0.00,VWS V14.00,2013-01-12 12:20:00,
2013-01-12 07:21:00,48.7,31.0,30.09,North,0,2.9,2.9,50,84.64,,---,0.00,VWS V14.00,2013-01-12 12:21:00,
2013-01-12 07:24:00,48.7,31.0,30.09,North,0,2.0,2.9,50,84.64,,---,0.00,VWS V14.00,2013-01-12 12:24:00,
2013-01-12 07:26:00,48.7,31.0,30.09,NW,315,2.9,2.9,50,84.64,,---,0.00,VWS V14.00,2013-01-12 12:26:00,
2013-01-12 07:27:00,48.7,31.0,30.09,WNW,292,2.9,3.1,50,84.64,,---,0.00,VWS V14.00,2013-01-12 12:27:00,
2013-01-12 07:28:00,48.7,31.0,30.09,WNW,292,4.0,4.0,50,84.64,,---,0.00,VWS V14.00,2013-01-12 12:28:00,
2013-01-12 07:33:00,48.7,31.4,30.09,ENE,68,1.6,1.6,51,84.64,,---,0.00,VWS V14.00,2013-01-12 12:33:00,
2013-01-12 07:34:00,48.7,31.4,30.09,NNW,338,1.3,2.5,51,84.64,,---,0.00,VWS V14.00,2013-01-12 12:34:00,
2013-01-12 07:39:00,48.7,31.4,30.09,WNW,292,3.1,4.7,51,84.64,,---,0.00,VWS V14.00,2013-01-12 12:39:00,
2013-01-12 07:40:00,48.7,31.4,30.09,NNE,22,2.7,4.0,51,84.64,,---,0.00,VWS V14.00,2013-01-12 12:40:00,
2013-01-12 07:43:00,48.7,31.4,30.09,NW,315,3.1,3.4,51,84.64,,---,0.00,VWS V14.00,2013-01-12 12:43:00,
2013-01-12 07:44:00,48.7,31.4,30.09,WNW,292,2.7,3.8,51,84.64,,---,0.00,VWS V14.00,2013-01-12 12:44:00,
2013-01-12 07:45:00,48.7,31.4,30.09,WNW,292,6.5,6.5,51,84.64,,---,0.00,VWS V14.00,2013-01-12 12:45:00,
2013-01-12 07:50:00,48.7,31.4,30.09,WNW,292,0.9,4.3,51,84.64,,---,0.00,VWS V14.00,2013-01-12 12:50:00,
2013-01-12 07:52:00,48.9,31.6,30.12,NW,315,4.5,5.4,51,84.64,,---,0.00,VWS V14.00,2013-01-12 12:52:00,
2013-01-12 07:54:00,48.9,31.6,30.12,NNW,338,1.6,5.8,51,84.64,,---,0.00,VWS V14.00,2013-01-12 12:54:00,
2013-01-12 07:57:00,48.9,32.1,30.12,NNW,338,2.9,3.4,52,84.64,,---,0.00,VWS V14.00,2013-01-12 12:57:00,
2013-01-12 07:58:00,48.9,32.1,30.12,NNW,338,2.0,2.9,52,84.64,,---,0.00,VWS V14.00,2013-01-12 12:58:00,
2013-01-12 07:59:00,48.9,32.1,30.12,WNW,292,3.4,3.4,52,84.64,,---,0.00,VWS V14.00,2013-01-12 12:59:00,
2013-01-12 08:00:00,48.9,32.1,30.12,NNW,338,3.1,3.4,52,84.64,,---,0.00,VWS V14.00,2013-01-12 13:00:00,
2013-01-12 08:02:00,48.9,32.1,30.12,NNW,338,1.6,2.5,52,84.64,,---,0.00,VWS V14.00,2013-01-12 13:02:00,
2013-01-12 08:04:00,48.9,32.1,30.12,NNE,22,2.5,5.6,52,84.64,,---,0.00,VWS V14.00,2013-01-12 13:04:00,
2013-01-12 08:08:00,48.9,32.1,30.12,NNW,338,2.9,4.3,52,84.64,,---,0.00,VWS V14.00,2013-01-12 13:08:00,
2013-01-12 08:09:00,48.9,32.1,30.12,NNW,338,2.7,2.9,52,84.64,,---,0.00,VWS V14.00,2013-01-12 13:09:00,
2013-01-12 08:10:00,48.9,32.1,30.12,NW,315,2.7,4.7,52,84.64,,---,0.00,VWS V14.00,2013-01-12 13:10:00,
2013-01-12 08:15:00,48.9,32.1,30.12,North,0,3.4,4.9,52,84.64,,---,0.00,VWS V14.00,2013-01-12 13:15:00,
2013-01-12 08:16:00,49.1,32.2,30.12,North,0,1.3,3.4,52,84.64,,---,0.00,VWS V14.00,2013-01-12 13:16:00,
2013-01-12 08:17:00,49.1,32.2,30.12,NW,315,2.5,3.4,52,84.64,,---,0.00,VWS V14.00,2013-01-12 13:17:00,
2013-01-12 08:20:00,49.1,32.2,30.12,North,0,2.0,3.8,52,84.64,,---,0.00,VWS V14.00,2013-01-12 13:20:00,
2013-01-12 08:25:00,49.1,32.2,30.12,NW,315,3.6,5.8,52,84.64,,---,0.00,VWS V14.00,2013-01-12 13:25:00,
2013-01-12 08:26:00,49.1,32.2,30.12,North,0,4.3,4.9,52,84.64,,---,0.00,VWS V14.00,2013-01-12 13:26:00,
2013-01-12 08:31:00,49.1,32.2,30.12,NNW,338,1.1,3.6,52,84.64,,---,0.00,VWS V14.00,2013-01-12 13:31:00,
2013-01-12 08:32:00,49.1,32.2,30.12,NNW,338,1.1,1.6,52,84.64,,---,0.00,VWS V14.00,2013-01-12 13:32:00,
2013-01-12 08:34:00,49.1,32.2,30.12,NNW,338,1.3,2.7,52,84.64,,---,0.00,VWS V14.00,2013-01-12 13:34:00,
2013-01-12 08:38:00,49.3,32.9,30.12,NNE,22,5.6,6.0,53,84.64,,---,0.00,VWS V14.00,2013-01-12 13:38:00,
2013-01-12 08:39:00,49.1,32.2,30.12,North,0,4.3,5.6,52,84.64,,---,0.00,VWS V14.00,2013-01-12 13:39:00,
2013-01-12 08:40:00,49.3,32.4,30.12,WNW,292,3.4,4.7,52,84.64,,---,0.00,VWS V14.00,2013-01-12 13:40:00,
2013-01-12 08:41:00,49.3,32.4,30.12,North,0,0.0,4.3,52,84.64,,---,0.00,VWS V14.00,2013-01-12 13:41:00,
2013-01-12 08:44:00,49.3,32.9,30.12,North,0,2.5,3.1,53,84.64,,---,0.00,VWS V14.00,2013-01-12 13:44:00,
2013-01-12 08:46:00,49.3,32.9,30.12,NW,315,2.7,2.9,53,84.64,,---,0.00,VWS V14.00,2013-01-12 13:46:00,
2013-01-12 08:49:00,49.5,33.1,30.12,NNW,338,3.6,4.3,53,84.64,,---,0.00,VWS V14.00,2013-01-12 13:49:00,
2013-01-12 08:51:00,49.5,33.1,30.12,WNW,292,2.5,3.1,53,84.64,,---,0.00,VWS V14.00,2013-01-12 13:51:00,
2013-01-12 08:54:00,49.5,33.5,30.12,NNW,338,1.6,5.6,54,84.64,,---,0.00,VWS V14.00,2013-01-12 13:54:00,
2013-01-12 08:57:00,49.6,33.7,30.12,NW,315,2.7,3.1,54,84.64,,---,0.00,VWS V14.00,2013-01-12 13:57:00,
2013-01-12 08:58:00,49.6,33.7,30.12,WNW,292,2.7,3.4,54,84.64,,---,0.00,VWS V14.00,2013-01-12 13:58:00,
2013-01-12 08:59:00,49.5,33.5,30.12,NW,315,3.1,4.0,54,84.64,,---,0.00,VWS V14.00,2013-01-12 13:59:00,
2013-01-12 09:00:00,49.5,33.1,30.12,NW,315,2.0,3.1,53,84.64,,---,0.00,VWS V14.00,2013-01-12 14:00:00,
2013-01-12 09:02:00,49.6,33.2,30.12,NW,315,1.3,2.0,53,84.64,,---,0.00,VWS V14.00,2013-01-12 14:02:00,
2013-01-12 09:04:00,49.6,33.2,30.12,NNW,338,0.0,2.2,53,84.64,,---,0.00,VWS V14.00,2013-01-12 14:04:00,
2013-01-12 09:06:00,49.6,33.2,30.12,NW,315,0.0,2.0,53,84.64,,---,0.00,VWS V14.00,2013-01-12 14:06:00,
2013-01-12 09:08:00,49.6,33.7,30.12,NW,315,2.9,4.7,54,84.64,,---,0.00,VWS V14.00,2013-01-12 14:08:00,
2013-01-12 09:09:00,49.6,33.7,30.12,NW,315,2.5,3.1,54,84.64,,---,0.00,VWS V14.00,2013-01-12 14:09:00,
2013-01-12 09:12:00,49.6,33.2,30.12,NW,315,4.3,4.3,53,84.64,,---,0.00,VWS V14.00,2013-01-12 14:12:00,
2013-01-12 09:13:00,49.6,33.2,30.12,NW,315,2.7,4.3,53,84.64,,---,0.00,VWS V14.00,2013-01-12 14:13:00,
2013-01-12 09:16:00,49.8,33.4,30.12,NNW,338,3.6,3.6,53,84.64,,---,0.00,VWS V14.00,2013-01-12 14:16:00,
2013-01-12 09:18:00,49.8,33.4,30.12,NNW,338,0.0,0.0,53,84.64,,---,0.00,VWS V14.00,2013-01-12 14:18:00,
2013-01-12 09:19:00,49.8,33.4,30.12,NNW,338,3.4,3.4,53,84.64,,---,0.00,VWS V14.00,2013-01-12 14:19:00,
2013-01-12 09:21:00,49.8,33.4,30.12,West,270,2.0,3.6,53,84.64,,---,0.00,VWS V14.00,2013-01-12 14:21:00,
2013-01-12 09:22:00,49.8,33.4,30.12,WNW,292,1.3,5.6,53,84.64,,---,0.00,VWS V14.00,2013-01-12 14:22:00,
2013-01-12 09:25:00,50.0,33.6,30.12,WNW,292,3.8,3.8,53,84.64,,---,0.00,VWS V14.00,2013-01-12 14:25:00,
2013-01-12 09:26:00,50.0,33.6,30.12,NNW,338,0.0,3.8,53,84.64,,---,0.00,VWS V14.00,2013-01-12 14:26:00,
2013-01-12 09:27:00,50.0,33.6,30.12,NNW,338,1.6,2.0,53,84.64,,---,0.00,VWS V14.00,2013-01-12 14:27:00,
2013-01-12 09:29:00,50.2,33.7,30.12,NNW,338,2.9,5.6,53,84.64,,---,0.00,VWS V14.00,2013-01-12 14:29:00,
2013-01-12 09:30:00,50.2,33.7,30.12,North,0,1.3,3.4,53,84.64,,---,0.00,VWS V14.00,2013-01-12 14:30:00,
2013-01-12 09:32:00,50.4,34.4,30.12,NNE,22,3.4,3.4,54,84.64,,---,0.00,VWS V14.00,2013-01-12 14:32:00,
2013-01-12 09:34:00,50.5,35.0,30.12,NNW,338,2.0,2.9,55,84.64,,---,0.00,VWS V14.00,2013-01-12 14:34:00,
2013-01-12 09:38:00,50.7,35.6,30.12,NNW,338,4.0,4.0,56,84.64,,---,0.00,VWS V14.00,2013-01-12 14:38:00,
2013-01-12 09:39:00,50.5,35.4,30.12,North,0,4.7,5.4,56,84.64,,---,0.00,VWS V14.00,2013-01-12 14:39:00,
2013-01-12 09:42:00,50.9,35.8,30.12,NW,315,1.3,2.5,56,84.64,,---,0.00,VWS V14.00,2013-01-12 14:42:00,
2013-01-12 09:44:00,51.1,36.8,30.12,NW,315,1.6,2.5,58,84.64,,---,0.00,VWS V14.00,2013-01-12 14:44:00,
2013-01-12 09:46:00,50.9,36.7,30.12,NW,315,5.6,5.6,58,84.64,,---,0.00,VWS V14.00,2013-01-12 14:46:00,
2013-01-12 09:47:00,50.9,36.2,30.12,NW,315,2.9,5.6,57,84.64,,---,0.00,VWS V14.00,2013-01-12 14:47:00,
2013-01-12 09:49:00,50.9,35.8,30.12,WNW,292,2.9,5.8,56,84.64,,---,0.00,VWS V14.00,2013-01-12 14:49:00,
2013-01-12 09:50:00,50.9,35.3,30.12,WNW,292,4.3,4.3,55,84.64,,---,0.00,VWS V14.00,2013-01-12 14:50:00,
2013-01-12 09:52:00,50.9,34.4,30.12,NW,315,3.4,4.7,53,84.64,,---,0.00,VWS V14.00,2013-01-12 14:52:00,
2013-01-12 09:54:00,50.9,33.4,30.12,NW,315,3.6,3.6,51,84.64,,---,0.00,VWS V14.00,2013-01-12 14:54:00,
2013-01-12 09:55:00,50.9,33.4,30.12,NW,315,0.0,6.0,51,84.64,,---,0.00,VWS V14.00,2013-01-12 14:55:00,
2013-01-12 09:56:00,50.9,32.9,30.12,NNW,338,0.0,0.0,50,84.64,,---,0.00,VWS V14.00,2013-01-12 14:56:00,
2013-01-12 10:00:00,51.1,33.1,30.12,NNE,22,4.9,5.8,50,84.64,,---,0.00,VWS V14.00,2013-01-12 15:00:00,
2013-01-12 10:01:00,51.1,32.6,30.12,North,0,2.2,4.9,49,84.64,,---,0.00,VWS V14.00,2013-01-12 15:01:00,
2013-01-12 10:02:00,51.1,32.6,30.12,NNW,338,3.1,3.1,49,84.64,,---,0.00,VWS V14.00,2013-01-12 15:02:00,
2013-01-12 10:05:00,51.3,32.8,30.12,NNW,338,3.8,4.3,49,84.64,,---,0.00,VWS V14.00,2013-01-12 15:05:00,
2013-01-12 10:06:00,51.1,32.6,30.12,NNW,338,3.4,3.8,49,84.64,,---,0.00,VWS V14.00,2013-01-12 15:06:00,
2013-01-12 10:08:00,51.1,32.1,30.12,North,0,2.0,3.4,48,84.64,,---,0.00,VWS V14.00,2013-01-12 15:08:00,
2013-01-12 10:11:00,51.3,32.3,30.12,NW,315,2.2,2.9,48,84.64,,---,0.00,VWS V14.00,2013-01-12 15:11:00,
2013-01-12 10:12:00,51.3,32.3,30.12,NNW,338,0.9,3.6,48,84.64,,---,0.00,VWS V14.00,2013-01-12 15:12:00,
2013-01-12 10:13:00,51.3,32.3,30.12,NNW,338,2.7,3.4,48,84.64,,---,0.00,VWS V14.00,2013-01-12 15:13:00,
2013-01-12 10:16:00,51.4,32.9,30.12,NNW,338,3.4,3.4,49,84.64,,---,0.00,VWS V14.00,2013-01-12 15:16:00,
2013-01-12 10:17:00,51.4,32.9,30.12,North,0,0.0,3.4,49,84.64,,---,0.00,VWS V14.00,2013-01-12 15:17:00,
2013-01-12 10:19:00,51.6,33.1,30.12,NNW,338,0.0,2.7,49,84.64,,---,0.00,VWS V14.00,2013-01-12 15:19:00,
2013-01-12 10:21:00,51.6,33.6,30.12,WNW,292,2.9,5.4,50,84.64,,---,0.00,VWS V14.00,2013-01-12 15:21:00,
2013-01-12 10:24:00,51.8,33.8,30.12,NNW,338,1.6,4.0,50,84.64,,---,0.00,VWS V14.00,2013-01-12 15:24:00,
2013-01-12 10:26:00,51.6,33.6,30.12,North,0,0.0,3.4,50,84.64,,---,0.00,VWS V14.00,2013-01-12 15:26:00,
2013-01-12 10:28:00,51.6,32.6,30.12,NNW,338,3.1,4.0,48,84.64,,---,0.00,VWS V14.00,2013-01-12 15:28:00,
2013-01-12 10:30:00,51.6,32.1,30.12,North,0,1.1,2.7,47,84.64,,---,0.00,VWS V14.00,2013-01-12 15:30:00,
2013-01-12 10:33:00,51.6,31.5,30.12,NNW,338,2.0,4.7,46,84.64,,---,0.00,VWS V14.00,2013-01-12 15:33:00,
2013-01-12 10:34:00,51.6,31.5,30.12,NW,315,2.7,2.7,46,84.64,,---,0.00,VWS V14.00,2013-01-12 15:34:00,
2013-01-12 10:35:00,51.6,31.5,30.12,NW,315,0.9,4.0,46,84.64,,---,0.00,VWS V14.00,2013-01-12 15:35:00,
2013-01-12 10:37:00,51.8,31.7,30.12,North,0,3.6,3.6,46,84.64,,---,0.00,VWS V14.00,2013-01-12 15:37:00,
2013-01-12 10:40:00,52.0,32.9,30.12,North,0,0.9,2.9,48,84.64,,---,0.00,VWS V14.00,2013-01-12 15:40:00,
2013-01-12 10:42:00,52.0,32.9,30.12,WNW,292,2.5,3.4,48,84.64,,---,0.00,VWS V14.00,2013-01-12 15:42:00,
2013-01-12 10:46:00,52.0,31.9,30.12,West,270,3.4,4.7,46,84.64,,---,0.00,VWS V14.00,2013-01-12 15:46:00,
2013-01-12 10:47:00,52.0,31.9,30.12,NNW,338,2.5,3.4,46,84.64,,---,0.00,VWS V14.00,2013-01-12 15:47:00,
2013-01-12 10:48:00,52.0,31.9,30.12,NNW,338,2.9,2.9,46,84.64,,---,0.00,VWS V14.00,2013-01-12 15:48:00,
2013-01-12 10:50:00,52.0,31.9,30.12,North,0,2.5,3.1,46,84.64,,---,0.00,VWS V14.00,2013-01-12 15:50:00,
2013-01-12 10:53:00,52.2,31.5,30.12,NNE,22,2.2,4.3,45,84.64,,---,0.00,VWS V14.00,2013-01-12 15:53:00,
2013-01-12 10:55:00,52.3,31.6,30.12,NNW,338,1.3,3.1,45,84.64,,---,0.00,VWS V14.00,2013-01-12 15:55:00,
2013-01-12 10:56:00,52.5,32.3,30.12,NNE,22,1.1,1.3,46,84.64,,---,0.00,VWS V14.00,2013-01-12 15:56:00,
2013-01-12 11:00:00,52.5,32.3,30.12,North,0,3.1,5.4,46,84.64,,---,0.00,VWS V14.00,2013-01-12 16:00:00,
2013-01-12 11:03:00,52.5,32.3,30.12,WNW,292,2.5,3.1,46,84.64,,---,0.00,VWS V14.00,2013-01-12 16:03:00,
2013-01-12 11:04:00,52.5,32.3,30.12,NNW,338,1.6,3.1,46,84.64,,---,0.00,VWS V14.00,2013-01-12 16:04:00,
2013-01-12 11:06:00,52.3,31.1,30.09,North,0,0.0,3.8,44,84.64,,---,0.00,VWS V14.00,2013-01-12 16:06:00,
2013-01-12 11:08:00,52.3,30.0,30.09,NNW,338,3.4,5.4,42,84.64,,---,0.00,VWS V14.00,2013-01-12 16:08:00,
2013-01-12 11:09:00,52.3,30.0,30.09,North,0,3.1,4.0,42,84.64,,---,0.00,VWS V14.00,2013-01-12 16:09:00,
2013-01-12 11:11:00,52.5,30.1,30.09,NNW,338,3.1,3.4,42,84.64,,---,0.00,VWS V14.00,2013-01-12 16:11:00,
2013-01-12 11:14:00,52.3,29.4,30.09,NNE,22,2.7,2.9,41,84.64,,---,0.00,VWS V14.00,2013-01-12 16:14:00,
2013-01-12 11:16:00,52.3,30.0,30.09,North,0,2.9,2.9,42,84.64,,---,0.00,VWS V14.00,2013-01-12 16:16:00,
2013-01-12 11:17:00,52.3,29.4,30.09,North,0,2.9,5.8,41,84.64,,---,0.00,VWS V14.00,2013-01-12 16:17:00,
2013-01-12 11:20:00,52.3,30.0,30.09,NNW,338,4.3,4.7,42,84.64,,---,0.00,VWS V14.00,2013-01-12 16:20:00,
2013-01-12 11:22:00,52.2,28.6,30.09,NNE,22,6.0,6.3,40,84.64,,---,0.00,VWS V14.00,2013-01-12 16:22:00,
2013-01-12 11:25:00,52.0,28.4,30.09,NNE,22,1.1,4.9,40,84.64,,---,0.00,VWS V14.00,2013-01-12 16:25:00,
2013-01-12 11:27:00,52.3,29.4,30.09,NNE,22,1.3,2.9,41,84.64,,---,0.00,VWS V14.00,2013-01-12 16:27:00,
2013-01-12 11:28:00,52.3,29.4,30.09,NNE,22,2.7,3.8,41,84.64,,---,0.00,VWS V14.00,2013-01-12 16:28:00,
2013-01-12 11:32:00,52.3,30.0,30.09,NNW,338,2.2,5.4,42,84.64,,---,0.00,VWS V14.00,2013-01-12 16:32:00,
2013-01-12 11:33:00,52.5,29.5,30.09,NNW,338,4.0,4.0,41,84.64,,---,0.00,VWS V14.00,2013-01-12 16:33:00,
2013-01-12 11:34:00,52.3,29.4,30.09,NNW,338,3.8,4.0,41,84.64,,---,0.00,VWS V14.00,2013-01-12 16:34:00,
2013-01-12 11:38:00,52.5,28.9,30.09,NNW,338,2.5,4.0,40,84.64,,---,0.00,VWS V14.00,2013-01-12 16:38:00,
2013-01-12 11:39:00,52.5,28.9,30.09,North,0,2.5,3.8,40,84.64,,---,0.00,VWS V14.00,2013-01-12 16:39:00,
2013-01-12 11:41:00,52.5,28.9,30.09,NNW,338,2.5,4.3,40,84.64,,---,0.00,VWS V14.00,2013-01-12 16:41:00,
2013-01-12 11:43:00,52.5,28.9,30.09,North,0,2.0,4.0,40,84.64,,---,0.00,VWS V14.00,2013-01-12 16:43:00,
2013-01-12 11:44:00,52.5,28.9,30.09,NNW,338,3.1,4.3,40,84.64,,---,0.00,VWS V14.00,2013-01-12 16:44:00,
2013-01-12 11:48:00,52.2,28.0,30.09,NNW,338,3.1,3.1,39,84.64,,---,0.00,VWS V14.00,2013-01-12 16:48:00,
2013-01-12 11:49:00,52.2,28.0,30.09,NW,315,4.0,4.5,39,84.64,,---,0.00,VWS V14.00,2013-01-12 16:49:00,
2013-01-12 11:52:00,52.2,27.3,30.09,North,0,3.1,3.8,38,84.64,,---,0.00,VWS V14.00,2013-01-12 16:52:00,
2013-01-12 11:53:00,52.2,28.0,30.09,North,0,2.9,4.9,39,84.64,,---,0.00,VWS V14.00,2013-01-12 16:53:00,
2013-01-12 11:55:00,52.3,28.1,30.09,North,0,2.9,3.4,39,84.64,,---,0.00,VWS V14.00,2013-01-12 16:55:00,
2013-01-12 11:58:00,52.2,28.0,30.09,North,0,3.1,5.6,39,84.64,,---,0.00,VWS V14.00,2013-01-12 16:58:00,
2013-01-12 12:01:00,52.0,27.2,30.09,NNE,22,6.3,6.3,38,84.64,,---,0.00,VWS V14.00,2013-01-12 17:01:00,
2013-01-12 12:03:00,51.8,27.0,30.09,North,0,5.4,7.2,38,84.64,,---,0.00,VWS V14.00,2013-01-12 17:03:00,
2013-01-12 12:04:00,51.8,27.0,30.09,North,0,4.9,5.4,38,84.64,,---,0.00,VWS V14.00,2013-01-12 17:04:00,
2013-01-12 12:06:00,51.8,27.0,30.09,NNE,22,3.4,3.8,38,84.64,,---,0.00,VWS V14.00,2013-01-12 17:06:00,
2013-01-12 12:08:00,52.0,27.2,30.09,NNE,22,4.3,4.3,38,84.64,,---,0.00,VWS V14.00,2013-01-12 17:08:00,
2013-01-12 12:09:00,52.0,27.2,30.09,NNE,22,2.5,4.3,38,84.64,,---,0.00,VWS V14.00,2013-01-12 17:09:00,
2013-01-12 12:13:00,52.2,27.3,30.09,NNW,338,2.7,2.7,38,84.64,,---,0.00,VWS V14.00,2013-01-12 17:13:00,
2013-01-12 12:15:00,52.2,27.3,30.09,NNW,338,2.7,3.6,38,84.64,,---,0.00,VWS V14.00,2013-01-12 17:15:00,
2013-01-12 12:17:00,52.3,27.5,30.09,North,0,2.0,2.2,38,84.64,,---,0.00,VWS V14.00,2013-01-12 17:17:00,
2013-01-12 12:19:00,52.2,27.3,30.09,North,0,2.2,3.1,38,84.64,,---,0.00,VWS V14.00,2013-01-12 17:19:00,
2013-01-12 12:22:00,52.3,27.5,30.09,North,0,1.3,5.4,38,84.64,,---,0.00,VWS V14.00,2013-01-12 17:22:00,
2013-01-12 12:24:00,52.3,27.5,30.09,NNE,22,3.1,3.4,38,84.64,,---,0.00,VWS V14.00,2013-01-12 17:24:00,
2013-01-12 12:27:00,52.5,27.7,30.09,NE,45,3.4,3.4,38,84.64,,---,0.00,VWS V14.00,2013-01-12 17:27:00,
2013-01-12 12:29:00,52.5,27.7,30.09,NNE,22,3.4,3.4,38,84.64,,---,0.00,VWS V14.00,2013-01-12 17:29:00,
2013-01-12 12:31:00,52.3,27.5,30.09,North,0,2.7,2.7,38,84.64,,---,0.00,VWS V14.00,2013-01-12 17:31:00,
2013-01-12 12:34:00,52.5,27.0,30.09,North,0,0.0,1.3,37,84.64,,---,0.00,VWS V14.00,2013-01-12 17:34:00,
2013-01-12 12:35:00,52.5,27.0,30.09,North,0,3.1,4.7,37,84.64,,---,0.00,VWS V14.00,2013-01-12 17:35:00,
2013-01-12 12:36:00,52.5,27.0,30.12,NNE,22,2.7,3.1,37,84.64,,---,0.00,VWS V14.00,2013-01-12 17:36:00,
2013-01-12 12:40:00,52.0,26.5,30.12,ENE,68,2.9,3.6,37,84.64,,---,0.00,VWS V14.00,2013-01-12 17:40:00,
2013-01-12 12:41:00,51.8,26.4,30.12,NNE,22,2.9,4.3,37,84.64,,---,0.00,VWS V14.00,2013-01-12 17:41:00,
2013-01-12 12:42:00,52.0,26.5,30.12,North,0,2.0,3.4,37,84.64,,---,0.00,VWS V14.00,2013-01-12 17:42:00,
2013-01-12 12:46:00,52.2,26.7,30.12,North,0,2.7,3.6,37,84.64,,---,0.00,VWS V14.00,2013-01-12 17:46:00,
2013-01-12 12:48:00,52.2,26.7,30.12,North,0,1.3,1.6,37,84.64,,---,0.00,VWS V14.00,2013-01-12 17:48:00,
2013-01-12 12:49:00,52.2,26.7,30.12,NNW,338,1.6,2.9,37,84.64,,---,0.00,VWS V14.00,2013-01-12 17:49:00,
2013-01-12 12:51:00,52.2,26.7,30.12,North,0,2.0,2.0,37,84.64,,---,0.00,VWS V14.00,2013-01-12 17:51:00,
2013-01-12 12:55:00,52.3,26.9,30.12,NNW,338,3.1,3.1,37,84.64,,---,0.00,VWS V14.00,2013-01-12 17:55:00,
2013-01-12 12:59:00,52.3,26.9,30.12,NNE,22,2.7,3.8,37,84.64,,---,0.00,VWS V14.00,2013-01-12 17:59:00,
2013-01-12 13:00:00,52.3,26.9,30.12,NNW,338,0.0,2.7,37,84.64,,---,0.00,VWS V14.00,2013-01-12 18:00:00,
2013-01-12 13:01:00,52.3,26.9,30.12,NNE,22,0.0,0.0,37,84.64,,---,0.00,VWS V14.00,2013-01-12 18:01:00,
2013-01-12 13:03:00,52.3,26.9,30.12,NW,315,2.0,2.9,37,84.64,,---,0.00,VWS V14.00,2013-01-12 18:03:00,
2013-01-12 13:05:00,52.3,26.9,30.12,North,0,0.0,1.3,37,84.64,,---,0.00,VWS V14.00,2013-01-12 18:05:00,
2013-01-12 13:06:00,52.3,26.9,30.09,NNW,338,0.0,0.0,37,84.64,,---,0.00,VWS V14.00,2013-01-12 18:06:00,
2013-01-12 13:07:00,52.3,26.9,30.09,NNW,338,0.0,0.0,37,84.64,,---,0.00,VWS V14.00,2013-01-12 18:07:00,
2013-01-12 13:10:00,52.3,26.9,30.09,North,0,3.4,3.4,37,84.64,,---,0.00,VWS V14.00,2013-01-12 18:10:00,
2013-01-12 13:14:00,52.3,26.9,30.09,North,0,2.9,2.9,37,84.64,,---,0.00,VWS V14.00,2013-01-12 18:14:00,
2013-01-12 13:15:00,52.3,26.9,30.09,NNW,338,0.0,2.9,37,84.64,,---,0.00,VWS V14.00,2013-01-12 18:15:00,
2013-01-12 13:20:00,52.3,26.9,30.09,NNE,22,2.0,3.1,37,84.64,,---,0.00,VWS V14.00,2013-01-12 18:20:00,
2013-01-12 13:22:00,52.3,26.9,30.12,NNE,22,2.7,4.0,37,84.64,,---,0.00,VWS V14.00,2013-01-12 18:22:00,
2013-01-12 13:23:00,52.2,26.7,30.12,NNE,22,2.9,2.9,37,84.64,,---,0.00,VWS V14.00,2013-01-12 18:23:00,
2013-01-12 13:25:00,52.2,26.7,30.12,NNE,22,1.3,2.0,37,84.64,,---,0.00,VWS V14.00,2013-01-12 18:25:00,
2013-01-12 13:28:00,52.2,26.7,30.12,North,0,3.6,3.6,37,84.64,,---,0.00,VWS V14.00,2013-01-12 18:28:00,
2013-01-12 13:31:00,52.2,26.7,30.12,NNE,22,2.0,4.0,37,84.64,,---,0.00,VWS V14.00,2013-01-12 18:31:00,
2013-01-12 13:33:00,52.3,26.9,30.12,NNE,22,2.7,3.4,37,84.64,,---,0.00,VWS V14.00,2013-01-12 18:33:00,
2013-01-12 13:36:00,52.3,26.9,30.12,NNW,338,2.9,4.0,37,84.64,,---,0.00,VWS V14.00,2013-01-12 18:36:00,
2013-01-12 13:37:00,52.2,26.7,30.12,NNE,22,2.7,2.9,37,84.64,,---,0.00,VWS V14.00,2013-01-12 18:37:00,
2013-01-12 13:41:00,52.0,25.9,30.12,North,0,5.6,5.6,36,84.64,,---,0.00,VWS V14.00,2013-01-12 18:41:00,
2013-01-12 13:42:00,52.0,26.5,30.12,NNE,22,4.3,5.6,37,84.64,,---,0.00,VWS V14.00,2013-01-12 18:42:00,
2013-01-12 13:43:00,52.0,26.5,30.12,NNE,22,4.0,4.3,37,84.64,,---,0.00,VWS V14.00,2013-01-12 18:43:00,
2013-01-12 13:44:00,52.0,26.5,30.12,NNE,22,2.7,4.3,37,84.64,,---,0.00,VWS V14.00,2013-01-12 18:44:00,
2013-01-12 13:46:00,52.2,26.7,30.12,NNE,22,2.5,3.6,37,84.64,,---,0.00,VWS V14.00,2013-01-12 18:46:00,
2013-01-12 13:48:00,52.2,26.7,30.12,NNE,22,2.0,2.9,37,84.64,,---,0.00,VWS V14.00,2013-01-12 18:48:00,
2013-01-12 13:52:00,52.2,26.7,30.12,North,0,2.0,3.6,37,84.64,,---,0.00,VWS V14.00,2013-01-12 18:52:00,
2013-01-12 13:54:00,52.2,26.7,30.12,NNE,22,4.3,4.3,37,84.64,,---,0.00,VWS V14.00,2013-01-12 18:54:00,
2013-01-12 13:56:00,52.2,26.7,30.12,NNE,22,2.2,2.7,37,84.64,,---,0.00,VWS V14.00,2013-01-12 18:56:00,
2013-01-12 13:57:00,52.2,26.7,30.12,NNE,22,2.9,2.9,37,84.64,,---,0.00,VWS V14.00,2013-01-12 18:57:00,
2013-01-12 14:02:00,52.3,26.9,30.12,NNE,22,3.1,3.8,37,84.64,,---,0.00,VWS V14.00,2013-01-12 19:02:00,
2013-01-12 14:04:00,52.2,26.7,30.12,NNE,22,2.7,4.7,37,84.64,,---,0.00,VWS V14.00,2013-01-12 19:04:00,
2013-01-12 14:05:00,52.2,26.7,30.12,NNE,22,1.3,2.7,37,84.64,,---,0.00,VWS V14.00,2013-01-12 19:05:00,
2013-01-12 14:07:00,52.3,26.9,30.12,NE,45,2.7,3.1,37,84.64,,---,0.00,VWS V14.00,2013-01-12 19:07:00,
2013-01-12 14:08:00,52.3,26.9,30.12,NNE,22,1.3,2.7,37,84.64,,---,0.00,VWS V14.00,2013-01-12 19:08:00,
2013-01-12 14:11:00,52.7,27.2,30.12,North,0,2.0,2.9,37,84.64,,---,0.00,VWS V14.00,2013-01-12 19:11:00,
2013-01-12 14:15:00,52.7,27.2,30.12,NNE,22,2.0,2.0,37,84.64,,---,0.00,VWS V14.00,2013-01-12 19:15:00,
2013-01-12 14:16:00,52.7,27.2,30.12,NNE,22,2.2,2.7,37,84.64,,---,0.00,VWS V14.00,2013-01-12 19:16:00,
2013-01-12 14:21:00,52.3,26.9,30.12,NNE,22,2.7,3.6,37,84.64,,---,0.00,VWS V14.00,2013-01-12 19:21:00,
2013-01-12 14:23:00,52.3,26.9,30.12,NE,45,3.6,3.8,37,84.64,,---,0.00,VWS V14.00,2013-01-12 19:23:00,
2013-01-12 14:28:00,52.2,26.0,30.12,North,0,3.4,3.4,36,84.64,,---,0.00,VWS V14.00,2013-01-12 19:28:00,
2013-01-12 14:30:00,52.3,26.9,30.12,NNE,22,1.3,1.3,37,84.64,,---,0.00,VWS V14.00,2013-01-12 19:30:00,
2013-01-12 14:34:00,52.3,26.9,30.12,NNE,22,3.1,3.1,37,84.64,,---,0.00,VWS V14.00,2013-01-12 19:34:00,
2013-01-12 14:38:00,52.3,26.9,30.12,NE,45,2.7,2.9,37,84.64,,---,0.00,VWS V14.00,2013-01-12 19:38:00,
2013-01-12 14:40:00,52.3,26.9,30.12,NNE,22,2.9,3.4,37,84.64,,---,0.00,VWS V14.00,2013-01-12 19:40:00,
2013-01-12 14:46:00,52.0,25.9,30.12,ENE,68,3.6,4.3,36,84.64,,---,0.00,VWS V14.00,2013-01-12 19:46:00,
2013-01-12 14:47:00,51.8,25.7,30.12,NE,45,3.6,3.6,36,84.64,,---,0.00,VWS V14.00,2013-01-12 19:47:00,
2013-01-12 14:51:00,51.8,25.7,30.09,ENE,68,3.6,3.6,36,84.64,,---,0.00,VWS V14.00,2013-01-12 19:51:00,
2013-01-12 14:54:00,51.6,26.2,30.09,ENE,68,2.9,4.3,37,84.64,,---,0.00,VWS V14.00,2013-01-12 19:54:00,
2013-01-12 14:57:00,52.0,25.9,30.09,NNE,22,2.7,3.4,36,84.64,,---,0.00,VWS V14.00,2013-01-12 19:57:00,
2013-01-12 14:59:00,52.0,25.9,30.09,North,0,2.5,3.1,36,84.64,,---,0.00,VWS V14.00,2013-01-12 19:59:00,
2013-01-12 15:02:00,52.0,25.9,30.09,North,0,0.9,4.3,36,84.64,,---,0.00,VWS V14.00,2013-01-12 20:02:00,
2013-01-12 15:05:00,52.2,26.7,30.09,NNE,22,0.0,0.0,37,84.64,,---,0.00,VWS V14.00,2013-01-12 20:05:00,
2013-01-12 15:07:00,52.0,25.9,30.09,NNE,22,0.0,0.0,36,84.64,,---,0.00,VWS V14.00,2013-01-12 20:07:00,
2013-01-12 15:10:00,52.0,25.9,30.09,ENE,68,2.5,3.8,36,84.64,,---,0.00,VWS V14.00,2013-01-12 20:10:00,
2013-01-12 15:12:00,51.8,25.7,30.09,ENE,68,2.5,3.6,36,84.64,,---,0.00,VWS V14.00,2013-01-12 20:12:00,
2013-01-12 15:15:00,51.4,26.0,30.09,NE,45,2.7,4.3,37,84.64,,---,0.00,VWS V14.00,2013-01-12 20:15:00,
2013-01-12 15:17:00,51.4,26.0,30.09,ENE,68,2.5,3.4,37,84.64,,---,0.00,VWS V14.00,2013-01-12 20:17:00,
2013-01-12 15:20:00,51.3,25.9,30.09,NE,45,3.4,4.0,37,84.64,,---,0.00,VWS V14.00,2013-01-12 20:20:00,
2013-01-12 15:24:00,51.3,25.9,30.06,East,90,1.1,2.9,37,84.64,,---,0.00,VWS V14.00,2013-01-12 20:24:00,
2013-01-12 15:26:00,51.1,25.7,30.06,ENE,68,2.9,4.0,37,84.64,,---,0.00,VWS V14.00,2013-01-12 20:26:00,
2013-01-12 15:29:00,50.9,25.6,30.06,ENE,68,2.0,2.7,37,84.64,,---,0.00,VWS V14.00,2013-01-12 20:29:00,
2013-01-12 15:33:00,50.7,25.4,30.06,ENE,68,2.9,4.3,37,84.64,,---,0.00,VWS V14.00,2013-01-12 20:33:00,
2013-01-12 15:36:00,50.5,25.2,30.09,ENE,68,3.1,3.1,37,84.64,,---,0.00,VWS V14.00,2013-01-12 20:36:00,
2013-01-12 15:42:00,50.7,25.4,30.09,East,90,2.9,2.9,37,84.64,,---,0.00,VWS V14.00,2013-01-12 20:42:00,
2013-01-12 15:45:00,50.5,25.2,30.09,ENE,68,2.5,4.3,37,84.64,,---,0.00,VWS V14.00,2013-01-12 20:45:00,
2013-01-12 15:48:00,50.7,25.4,30.09,ESE,112,1.1,3.1,37,84.64,,---,0.00,VWS V14.00,2013-01-12 20:48:00,
2013-01-12 15:53:00,50.4,25.1,30.09,NE,45,5.6,5.6,37,84.64,,---,0.00,VWS V14.00,2013-01-12 20:53:00,
2013-01-12 15:54:00,50.4,25.1,30.09,NE,45,4.5,5.6,37,84.64,,---,0.00,VWS V14.00,2013-01-12 20:54:00,
2013-01-12 15:59:00,50.2,24.9,30.09,ENE,68,2.7,4.0,37,84.64,,---,0.00,VWS V14.00,2013-01-12 20:59:00,
2013-01-12 16:00:00,50.2,24.9,30.09,NE,45,3.4,4.0,37,84.64,,---,0.00,VWS V14.00,2013-01-12 21:00:00,
2013-01-12 16:04:00,50.2,24.9,30.09,ENE,68,2.9,4.3,37,84.64,,---,0.00,VWS V14.00,2013-01-12 21:04:00,
2013-01-12 16:05:00,50.2,24.9,30.09,ENE,68,0.0,3.4,37,84.64,,---,0.00,VWS V14.00,2013-01-12 21:05:00,
2013-01-12 16:09:00,50.5,25.2,30.12,ENE,68,0.0,0.0,37,84.64,,---,0.00,VWS V14.00,2013-01-12 21:09:00,
2013-01-12 16:11:00,50.5,25.2,30.12,ENE,68,0.0,0.0,37,84.64,,---,0.00,VWS V14.00,2013-01-12 21:11:00,
2013-01-12 16:14:00,50.4,25.1,30.12,ENE,68,0.0,0.0,37,84.64,,---,0.00,VWS V14.00,2013-01-12 21:14:00,
2013-01-12 16:16:00,50.9,26.2,30.12,ENE,68,0.0,0.0,38,84.64,,---,0.00,VWS V14.00,2013-01-12 21:16:00,
2013-01-12 16:19:00,50.7,26.0,30.12,ENE,68,0.0,0.0,38,84.64,,---,0.00,VWS V14.00,2013-01-12 21:19:00,
2013-01-12 16:22:00,50.5,25.2,30.12,ENE,68,3.6,3.6,37,84.64,,---,0.00,VWS V14.00,2013-01-12 21:22:00,
2013-01-12 16:27:00,50.2,24.9,30.12,East,90,4.3,6.0,37,84.64,,---,0.00,VWS V14.00,2013-01-12 21:27:00,
2013-01-12 16:28:00,50.2,24.9,30.12,NE,45,4.3,4.9,37,84.64,,---,0.00,VWS V14.00,2013-01-12 21:28:00,
2013-01-12 16:33:00,50.0,24.8,30.12,ENE,68,4.0,5.4,37,84.64,,---,0.00,VWS V14.00,2013-01-12 21:33:00,
2013-01-12 16:37:00,49.8,25.2,30.12,NE,45,3.8,5.8,38,84.64,,---,0.00,VWS V14.00,2013-01-12 21:37:00,
2013-01-12 16:38:00,49.8,25.2,30.12,ENE,68,3.8,5.6,38,84.64,,---,0.00,VWS V14.00,2013-01-12 21:38:00,
2013-01-12 16:43:00,49.8,25.2,30.12,NE,45,4.5,4.5,38,84.64,,---,0.00,VWS V14.00,2013-01-12 21:43:00,
2013-01-12 16:48:00,49.8,25.2,30.12,NE,45,5.4,5.4,38,84.64,,---,0.00,VWS V14.00,2013-01-12 21:48:00,
2013-01-12 16:49:00,49.8,25.2,30.12,NE,45,4.5,5.4,38,84.64,,---,0.00,VWS V14.00,2013-01-12 21:49:00,
2013-01-12 16:53:00,49.6,25.1,30.15,NE,45,5.8,5.8,38,84.64,,---,0.00,VWS V14.00,2013-01-12 21:53:00,
2013-01-12 16:54:00,49.6,25.1,30.15,NE,45,5.8,7.2,38,84.64,,---,0.00,VWS V14.00,2013-01-12 21:54:00,
2013-01-12 16:59:00,49.6,25.1,30.15,ENE,68,2.5,4.0,38,84.64,,---,0.00,VWS V14.00,2013-01-12 21:59:00,
2013-01-12 17:00:00,49.6,25.1,30.15,NE,45,2.5,2.9,38,84.64,,---,0.00,VWS V14.00,2013-01-12 22:00:00,
2013-01-12 17:05:00,49.6,25.1,30.15,NE,45,4.9,4.9,38,84.64,,---,0.00,VWS V14.00,2013-01-12 22:05:00,
2013-01-12 17:06:00,49.6,25.1,30.15,East,90,5.4,5.6,38,84.64,,---,0.00,VWS V14.00,2013-01-12 22:06:00,
2013-01-12 17:11:00,49.5,24.9,30.15,ENE,68,3.4,4.9,38,84.64,,---,0.00,VWS V14.00,2013-01-12 22:11:00,
2013-01-12 17:13:00,49.5,24.9,30.15,NE,45,5.8,5.8,38,84.64,,---,0.00,VWS V14.00,2013-01-12 22:13:00,
2013-01-12 17:16:00,49.5,24.9,30.15,ENE,68,3.6,5.6,38,84.64,,---,0.00,VWS V14.00,2013-01-12 22:16:00,
2013-01-12 17:20:00,49.5,24.9,30.15,NNE,22,5.6,6.9,38,84.64,,---,0.00,VWS V14.00,2013-01-12 22:20:00,
2013-01-12 17:21:00,49.5,24.9,30.15,ENE,68,4.5,5.6,38,84.64,,---,0.00,VWS V14.00,2013-01-12 22:21:00,
2013-01-12 17:26:00,49.5,24.9,30.15,ENE,68,3.4,3.4,38,84.64,,---,0.00,VWS V14.00,2013-01-12 22:26:00,
2013-01-12 17:31:00,49.3,24.8,30.15,ENE,68,2.7,4.9,38,84.64,,---,0.00,VWS V14.00,2013-01-12 22:31:00,
2013-01-12 17:35:00,49.3,25.4,30.15,ENE,68,2.9,4.7,39,84.64,,---,0.00,VWS V14.00,2013-01-12 22:35:00,
2013-01-12 17:36:00,49.3,25.4,30.15,NE,45,3.1,3.1,39,84.64,,---,0.00,VWS V14.00,2013-01-12 22:36:00,
2013-01-12 17:41:00,49.3,25.4,30.15,NNE,22,4.0,4.3,39,84.64,,---,0.00,VWS V14.00,2013-01-12 22:41:00,
2013-01-12 17:43:00,49.3,25.4,30.15,NE,45,5.4,6.3,39,84.64,,---,0.00,VWS V14.00,2013-01-12 22:43:00,
2013-01-12 17:48:00,49.3,25.4,30.15,NE,45,6.0,6.0,39,0.00,,---,0.00,VWS V14.00,2013-01-12 22:48:00,
2013-01-12 17:50:00,49.3,25.4,30.15,NE,45,4.0,4.5,39,0.00,,---,0.00,VWS V14.00,2013-01-12 22:50:00,
2013-01-12 17:54:00,49.3,25.4,30.18,ENE,68,4.9,4.9,39,0.00,,---,0.00,VWS V14.00,2013-01-12 22:54:00,
2013-01-12 17:55:00,49.3,25.4,30.18,NE,45,2.9,4.9,39,0.00,,---,0.00,VWS V14.00,2013-01-12 22:55:00,
2013-01-12 18:00:00,49.3,25.4,30.18,NE,45,5.4,5.4,39,0.00,,---,0.00,VWS V14.00,2013-01-12 23:00:00,
2013-01-12 18:01:00,49.3,25.4,30.18,NE,45,5.6,5.8,39,0.00,,---,0.00,VWS V14.00,2013-01-12 23:01:00,
2013-01-12 18:06:00,49.5,25.5,30.15,NE,45,3.4,3.8,39,0.00,,---,0.00,VWS V14.00,2013-01-12 23:06:00,
2013-01-12 18:07:00,49.5,25.5,30.15,NE,45,3.8,4.0,39,0.00,,---,0.00,VWS V14.00,2013-01-12 23:07:00,
2013-01-12 18:12:00,49.5,25.5,30.15,NE,45,3.4,4.3,39,0.00,,---,0.00,VWS V14.00,2013-01-12 23:12:00,
2013-01-12 18:13:00,49.5,25.5,30.15,NNE,22,3.4,3.8,39,0.00,,---,0.00,VWS V14.00,2013-01-12 23:13:00,
2013-01-12 18:17:00,49.5,25.5,30.15,NE,45,3.1,4.0,39,0.00,,---,0.00,VWS V14.00,2013-01-12 23:17:00,
2013-01-12 18:18:00,49.5,25.5,30.15,NNE,22,4.7,4.7,39,0.00,,---,0.00,VWS V14.00,2013-01-12 23:18:00,
2013-01-12 18:22:00,49.5,25.5,30.15,NNE,22,3.4,3.6,39,0.00,,---,0.00,VWS V14.00,2013-01-12 23:22:00,
2013-01-12 18:23:00,49.6,25.7,30.15,NNE,22,3.8,3.8,39,0.00,,---,0.00,VWS V14.00,2013-01-12 23:23:00,
2013-01-12 18:26:00,49.6,25.7,30.15,NE,45,2.9,3.8,39,0.00,,---,0.00,VWS V14.00,2013-01-12 23:26:00,
2013-01-12 18:28:00,49.6,25.7,30.15,NE,45,6.3,6.3,39,0.00,,---,0.00,VWS V14.00,2013-01-12 23:28:00,
2013-01-12 18:29:00,49.6,25.7,30.15,NE,45,5.8,6.3,39,0.00,,---,0.00,VWS V14.00,2013-01-12 23:29:00,
2013-01-12 18:33:00,49.6,25.7,30.15,NE,45,4.0,4.3,39,0.00,,---,0.00,VWS V14.00,2013-01-12 23:33:00,
2013-01-12 18:35:00,49.6,25.7,30.15,NE,45,3.6,4.3,39,0.00,,---,0.00,VWS V14.00,2013-01-12 23:35:00,
2013-01-12 18:38:00,49.5,25.5,30.15,NNE,22,4.0,5.6,39,0.00,,---,0.00,VWS V14.00,2013-01-12 23:38:00,
2013-01-12 18:41:00,49.5,25.5,30.15,ENE,68,3.1,4.3,39,0.00,,---,0.00,VWS V14.00,2013-01-12 23:41:00,
2013-01-12 18:46:00,49.5,25.5,30.15,NE,45,5.8,5.8,39,0.00,,---,0.00,VWS V14.00,2013-01-12 23:46:00,
2013-01-12 18:47:00,49.3,25.4,30.15,NE,45,3.4,5.8,39,0.00,,---,0.00,VWS V14.00,2013-01-12 23:47:00,
2013-01-12 18:53:00,49.3,25.4,30.15,ENE,68,5.8,5.8,39,0.00,,---,0.00,VWS V14.00,2013-01-12 23:53:00,
2013-01-12 18:54:00,49.3,25.4,30.15,ENE,68,3.6,5.8,39,0.00,,---,0.00,VWS V14.00,2013-01-12 23:54:00,
2013-01-12 18:59:00,49.3,25.4,30.15,NE,45,2.7,2.7,39,0.00,,---,0.00,VWS V14.00,2013-01-12 23:59:00,
2013-01-12 19:00:00,49.3,25.4,30.15,ENE,68,2.9,5.4,39,0.00,,---,0.00,VWS V14.00,2013-01-13 00:00:00,
2013-01-12 19:04:00,49.3,26.0,30.15,ENE,68,2.2,4.3,40,0.00,,---,0.00,VWS V14.00,2013-01-13 00:04:00,
2013-01-12 19:06:00,49.3,25.4,30.15,East,90,2.7,2.7,39,0.00,,---,0.00,VWS V14.00,2013-01-13 00:06:00,
2013-01-12 19:12:00,49.3,26.0,30.15,ESE,112,3.8,3.8,40,0.00,,---,0.00,VWS V14.00,2013-01-13 00:12:00,
2013-01-12 19:13:00,49.3,26.0,30.15,ENE,68,2.5,3.8,40,0.00,,---,0.00,VWS V14.00,2013-01-13 00:13:00,
2013-01-12 19:17:00,49.3,25.4,30.15,ENE,68,2.0,2.7,39,0.00,,---,0.00,VWS V14.00,2013-01-13 00:17:00,
2013-01-12 19:22:00,49.3,25.4,30.15,ENE,68,0.0,0.0,39,0.00,,---,0.00,VWS V14.00,2013-01-13 00:22:00,
2013-01-12 19:23:00,49.3,25.4,30.15,ENE,68,0.0,0.0,39,0.00,,---,0.00,VWS V14.00,2013-01-13 00:23:00,
2013-01-12 19:27:00,49.1,25.2,30.15,East,90,3.4,3.4,39,0.00,,---,0.00,VWS V14.00,2013-01-13 00:27:00,
2013-01-12 19:32:00,49.1,25.2,30.15,ENE,68,1.6,2.7,39,0.00,,---,0.00,VWS V14.00,2013-01-13 00:32:00,
2013-01-12 19:34:00,49.1,25.2,30.15,ENE,68,2.2,3.1,39,0.00,,---,0.00,VWS V14.00,2013-01-13 00:34:00,
2013-01-12 19:39:00,48.9,25.1,30.15,ENE,68,2.5,3.1,39,0.00,,---,0.00,VWS V14.00,2013-01-13 00:39:00,
2013-01-12 19:41:00,48.9,25.7,30.15,ENE,68,1.6,3.1,40,0.00,,---,0.00,VWS V14.00,2013-01-13 00:41:00,
2013-01-12 19:45:00,48.9,25.7,30.15,East,90,0.0,0.0,40,0.00,,---,0.00,VWS V14.00,2013-01-13 00:45:00,
2013-01-12 19:50:00,48.9,25.7,30.15,NE,45,3.1,3.1,40,0.00,,---,0.00,VWS V14.00,2013-01-13 00:50:00,
2013-01-12 19:52:00,48.9,25.7,30.15,ENE,68,0.0,0.0,40,0.00,,---,0.00,VWS V14.00,2013-01-13 00:52:00,
2013-01-12 19:55:00,48.9,25.7,30.15,ENE,68,2.5,2.5,40,0.00,,---,0.00,VWS V14.00,2013-01-13 00:55:00,
2013-01-12 19:58:00,48.9,25.7,30.15,ENE,68,1.3,2.7,40,0.00,,---,0.00,VWS V14.00,2013-01-13 00:58:00,
2013-01-12 19:59:00,48.9,25.7,30.15,ENE,68,0.0,1.3,40,0.00,,---,0.00,VWS V14.00,2013-01-13 00:59:00,
2013-01-12 20:01:00,48.9,25.7,30.15,NE,45,2.7,3.6,40,0.00,,---,0.00,VWS V14.00,2013-01-13 01:01:00,
2013-01-12 20:03:00,48.9,25.7,30.15,NE,45,2.2,2.7,40,0.00,,---,0.00,VWS V14.00,2013-01-13 01:03:00,
2013-01-12 20:08:00,48.9,25.7,30.15,NE,45,2.0,2.9,40,0.00,,---,0.00,VWS V14.00,2013-01-13 01:08:00,
2013-01-12 20:13:00,48.7,25.5,30.15,NNE,22,2.9,2.9,40,0.00,,---,0.00,VWS V14.00,2013-01-13 01:13:00,
2013-01-12 20:15:00,48.7,25.5,30.15,NE,45,2.9,3.6,40,0.00,,---,0.00,VWS V14.00,2013-01-13 01:15:00,
2013-01-12 20:18:00,48.7,25.5,30.15,ENE,68,2.7,4.0,40,0.00,,---,0.00,VWS V14.00,2013-01-13 01:18:00,
2013-01-12 20:20:00,48.7,25.5,30.15,ENE,68,0.0,1.1,40,0.00,,---,0.00,VWS V14.00,2013-01-13 01:20:00,
2013-01-12 20:22:00,48.7,25.5,30.15,ENE,68,0.0,0.0,40,0.00,,---,0.00,VWS V14.00,2013-01-13 01:22:00,
2013-01-12 20:23:00,48.7,25.5,30.15,ENE,68,0.0,0.0,40,0.00,,---,0.00,VWS V14.00,2013-01-13 01:23:00,
2013-01-12 20:25:00,48.7,25.5,30.15,ENE,68,0.0,0.0,40,0.00,,---,0.00,VWS V14.00,2013-01-13 01:25:00,
2013-01-12 20:28:00,48.7,25.5,30.15,ENE,68,0.0,0.0,40,0.00,,---,0.00,VWS V14.00,2013-01-13 01:28:00,
2013-01-12 20:30:00,48.7,25.5,30.15,ENE,68,0.0,0.0,40,0.00,,---,0.00,VWS V14.00,2013-01-13 01:30:00,
2013-01-12 20:35:00,48.7,25.5,30.15,NE,45,4.0,4.0,40,0.00,,---,0.00,VWS V14.00,2013-01-13 01:35:00,
2013-01-12 20:36:00,48.7,25.5,30.15,NNE,22,2.0,4.0,40,0.00,,---,0.00,VWS V14.00,2013-01-13 01:36:00,
2013-01-12 20:41:00,48.7,25.5,30.15,NNE,22,0.0,0.0,40,0.00,,---,0.00,VWS V14.00,2013-01-13 01:41:00,
2013-01-12 20:47:00,48.7,25.5,30.15,North,0,0.0,0.9,40,0.00,,---,0.00,VWS V14.00,2013-01-13 01:47:00,
2013-01-12 20:50:00,48.7,25.5,30.15,NNE,22,1.6,2.0,40,0.00,,---,0.00,VWS V14.00,2013-01-13 01:50:00,
2013-01-12 20:53:00,48.7,25.5,30.15,NNE,22,0.0,1.3,40,0.00,,---,0.00,VWS V14.00,2013-01-13 01:53:00,
2013-01-12 20:55:00,48.9,25.7,30.15,North,0,0.0,0.0,40,0.00,,---,0.00,VWS V14.00,2013-01-13 01:55:00,
2013-01-12 20:59:00,48.7,25.5,30.15,North,0,0.0,2.2,40,0.00,,---,0.00,VWS V14.00,2013-01-13 01:59:00,
2013-01-12 21:00:00,48.7,25.5,30.15,North,0,0.0,0.0,40,0.00,,---,0.00,VWS V14.00,2013-01-13 02:00:00,
2013-01-12 21:05:00,48.7,25.5,30.15,NNE,22,0.0,0.0,40,0.00,,---,0.00,VWS V14.00,2013-01-13 02:05:00,
2013-01-12 21:06:00,48.7,25.5,30.12,NNE,22,0.0,0.0,40,0.00,,---,0.00,VWS V14.00,2013-01-13 02:06:00,
2013-01-12 21:10:00,48.7,25.5,30.12,NNE,22,0.0,0.0,40,0.00,,---,0.00,VWS V14.00,2013-01-13 02:10:00,
2013-01-12 21:13:00,48.7,25.5,30.12,NNE,22,0.0,0.0,40,0.00,,---,0.00,VWS V14.00,2013-01-13 02:13:00,
2013-01-12 21:16:00,48.7,25.5,30.12,NNE,22,0.0,0.0,40,0.00,,---,0.00,VWS V14.00,2013-01-13 02:16:00,
2013-01-12 21:18:00,48.7,25.5,30.12,NNE,22,0.0,0.0,40,0.00,,---,0.00,VWS V14.00,2013-01-13 02:18:00,
2013-01-12 21:23:00,48.7,25.5,30.12,NNE,22,0.0,0.0,40,0.00,,---,0.00,VWS V14.00,2013-01-13 02:23:00,
2013-01-12 21:28:00,48.9,25.7,30.12,NNE,22,0.0,0.0,40,0.00,,---,0.00,VWS V14.00,2013-01-13 02:28:00,
2013-01-12 21:29:00,48.7,25.5,30.12,NNE,22,0.0,0.0,40,0.00,,---,0.00,VWS V14.00,2013-01-13 02:29:00,
2013-01-12 21:34:00,48.9,25.7,30.12,NE,45,0.0,0.0,40,0.00,,---,0.00,VWS V14.00,2013-01-13 02:34:00,
2013-01-12 21:38:00,48.7,25.5,30.09,ENE,68,0.0,0.0,40,0.00,,---,0.00,VWS V14.00,2013-01-13 02:38:00,
2013-01-12 21:39:00,48.7,25.5,30.09,ENE,68,0.0,0.0,40,0.00,,---,0.00,VWS V14.00,2013-01-13 02:39:00,
2013-01-12 21:40:00,48.7,25.5,30.09,ENE,68,0.0,0.0,40,0.00,,---,0.00,VWS V14.00,2013-01-13 02:40:00,
2013-01-12 21:45:00,48.7,25.5,30.09,ENE,68,1.1,1.1,40,0.00,,---,0.00,VWS V14.00,2013-01-13 02:45:00,
2013-01-12 21:51:00,48.7,25.5,30.09,ENE,68,0.0,0.0,40,0.00,,---,0.00,VWS V14.00,2013-01-13 02:51:00,
2013-01-12 21:52:00,48.7,25.5,30.09,ENE,68,0.0,0.0,40,0.00,,---,0.00,VWS V14.00,2013-01-13 02:52:00,
2013-01-12 21:56:00,48.7,25.5,30.09,ENE,68,0.0,0.0,40,0.00,,---,0.00,VWS V14.00,2013-01-13 02:56:00,
2013-01-12 21:57:00,48.7,25.5,30.09,ENE,68,0.0,0.0,40,0.00,,---,0.00,VWS V14.00,2013-01-13 02:57:00,
2013-01-12 22:01:00,48.7,25.5,30.09,ENE,68,0.0,0.0,40,0.00,,---,0.00,VWS V14.00,2013-01-13 03:01:00,
2013-01-12 22:02:00,48.7,25.5,30.09,ENE,68,0.0,0.0,40,0.00,,---,0.00,VWS V14.00,2013-01-13 03:02:00,
2013-01-12 22:07:00,48.7,25.5,30.09,ENE,68,3.1,3.1,40,0.00,,---,0.00,VWS V14.00,2013-01-13 03:07:00,
2013-01-12 22:09:00,48.7,25.5,30.09,ESE,112,2.9,3.4,40,0.00,,---,0.00,VWS V14.00,2013-01-13 03:09:00,
2013-01-12 22:12:00,48.7,26.1,30.09,East,90,1.6,2.5,41,0.00,,---,0.00,VWS V14.00,2013-01-13 03:12:00,
2013-01-12 22:14:00,48.7,26.1,30.09,East,90,2.2,2.2,41,0.00,,---,0.00,VWS V14.00,2013-01-13 03:14:00,
2013-01-12 22:17:00,48.7,26.1,30.09,East,90,2.9,2.9,41,0.00,,---,0.00,VWS V14.00,2013-01-13 03:17:00,
2013-01-12 22:19:00,48.7,26.1,30.09,ESE,112,1.6,2.5,41,0.00,,---,0.00,VWS V14.00,2013-01-13 03:19:00,
2013-01-12 22:22:00,48.6,25.4,30.09,ESE,112,1.1,2.5,40,0.00,,---,0.00,VWS V14.00,2013-01-13 03:22:00,
2013-01-12 22:24:00,48.6,25.4,30.09,ESE,112,2.5,2.7,40,0.00,,---,0.00,VWS V14.00,2013-01-13 03:24:00,
2013-01-12 22:29:00,48.6,25.4,30.09,ESE,112,0.0,0.0,40,0.00,,---,0.00,VWS V14.00,2013-01-13 03:29:00,
2013-01-12 22:34:00,48.6,25.4,30.09,ESE,112,0.0,0.0,40,0.00,,---,0.00,VWS V14.00,2013-01-13 03:34:00,
2013-01-12 22:39:00,48.6,25.4,30.09,ESE,112,2.0,2.2,40,0.00,,---,0.00,VWS V14.00,2013-01-13 03:39:00,
2013-01-12 22:42:00,48.6,26.0,30.09,ESE,112,0.0,0.0,41,0.00,,---,0.00,VWS V14.00,2013-01-13 03:42:00,
2013-01-12 22:46:00,48.6,26.0,30.09,ESE,112,2.0,2.9,41,0.00,,---,0.00,VWS V14.00,2013-01-13 03:46:00,
2013-01-12 22:47:00,48.6,26.0,30.09,ESE,112,2.9,4.0,41,0.00,,---,0.00,VWS V14.00,2013-01-13 03:47:00,
2013-01-12 22:52:00,48.6,26.0,30.09,ESE,112,1.6,2.9,41,0.00,,---,0.00,VWS V14.00,2013-01-13 03:52:00,
2013-01-12 22:56:00,48.6,26.0,30.09,East,90,2.5,3.6,41,0.00,,---,0.00,VWS V14.00,2013-01-13 03:56:00,
2013-01-12 22:57:00,48.4,25.8,30.09,East,90,2.5,2.7,41,0.00,,---,0.00,VWS V14.00,2013-01-13 03:57:00,
2013-01-12 22:58:00,48.4,25.8,30.09,ESE,112,3.1,3.4,41,0.00,,---,0.00,VWS V14.00,2013-01-13 03:58:00,
2013-01-12 22:59:00,48.4,25.8,30.09,ESE,112,2.2,3.1,41,0.00,,---,0.00,VWS V14.00,2013-01-13 03:59:00,
2013-01-12 23:03:00,48.4,25.8,30.09,ESE,112,2.7,2.9,41,0.00,,---,0.00,VWS V14.00,2013-01-13 04:03:00,
2013-01-12 23:05:00,48.4,26.4,30.09,ESE,112,3.1,3.8,42,0.00,,---,0.00,VWS V14.00,2013-01-13 04:05:00,
2013-01-12 23:08:00,48.4,26.4,30.09,ESE,112,3.6,4.0,42,0.00,,---,0.00,VWS V14.00,2013-01-13 04:08:00,
2013-01-12 23:10:00,48.4,26.4,30.09,ESE,112,2.9,3.4,42,0.00,,---,0.00,VWS V14.00,2013-01-13 04:10:00,
2013-01-12 23:14:00,48.4,26.4,30.09,ENE,68,2.2,2.9,42,0.00,,---,0.00,VWS V14.00,2013-01-13 04:14:00,
2013-01-12 23:16:00,48.4,26.4,30.09,East,90,0.9,2.9,42,0.00,,---,0.00,VWS V14.00,2013-01-13 04:16:00,
2013-01-12 23:17:00,48.4,26.9,30.09,East,90,0.0,2.7,43,0.00,,---,0.00,VWS V14.00,2013-01-13 04:17:00,
2013-01-12 23:18:00,48.4,26.9,30.09,East,90,0.0,2.0,43,0.00,,---,0.00,VWS V14.00,2013-01-13 04:18:00,
2013-01-12 23:20:00,48.4,26.9,30.09,ESE,112,0.0,0.0,43,0.00,,---,0.00,VWS V14.00,2013-01-13 04:20:00,
2013-01-12 23:23:00,48.4,26.4,30.12,ESE,112,0.0,1.6,42,0.00,,---,0.00,VWS V14.00,2013-01-13 04:23:00,
2013-01-12 23:25:00,48.2,26.2,30.12,ESE,112,0.0,0.0,42,0.00,,---,0.00,VWS V14.00,2013-01-13 04:25:00,
2013-01-12 23:28:00,48.2,26.2,30.12,East,90,1.6,1.6,42,0.00,,---,0.00,VWS V14.00,2013-01-13 04:28:00,
2013-01-12 23:29:00,48.2,26.2,30.12,East,90,1.3,2.0,42,0.00,,---,0.00,VWS V14.00,2013-01-13 04:29:00,
2013-01-12 23:30:00,48.2,26.2,30.12,East,90,2.7,2.7,42,0.00,,---,0.00,VWS V14.00,2013-01-13 04:30:00,
2013-01-12 23:34:00,48.2,26.2,30.12,ENE,68,0.0,1.6,42,0.00,,---,0.00,VWS V14.00,2013-01-13 04:34:00,
2013-01-12 23:35:00,48.2,26.2,30.12,ENE,68,2.0,2.0,42,0.00,,---,0.00,VWS V14.00,2013-01-13 04:35:00,
2013-01-12 23:37:00,48.0,26.0,30.12,East,90,2.7,2.7,42,0.00,,---,0.00,VWS V14.00,2013-01-13 04:37:00,
2013-01-12 23:39:00,48.0,26.0,30.12,ESE,112,3.1,3.8,42,0.00,,---,0.00,VWS V14.00,2013-01-13 04:39:00,
2013-01-12 23:40:00,48.0,26.0,30.12,ESE,112,3.8,3.8,42,0.00,,---,0.00,VWS V14.00,2013-01-13 04:40:00,
2013-01-12 23:41:00,48.0,26.0,30.12,ESE,112,3.1,3.8,42,0.00,,---,0.00,VWS V14.00,2013-01-13 04:41:00,
2013-01-12 23:44:00,48.0,26.6,30.12,SE,135,2.2,2.2,43,0.00,,---,0.00,VWS V14.00,2013-01-13 04:44:00,
2013-01-12 23:47:00,48.0,26.6,30.12,SE,135,0.0,1.6,43,0.00,,---,0.00,VWS V14.00,2013-01-13 04:47:00,
2013-01-12 23:48:00,48.0,26.6,30.12,SE,135,0.0,0.0,43,0.00,,---,0.00,VWS V14.00,2013-01-13 04:48:00,
2013-01-12 23:53:00,48.0,26.6,30.12,SE,135,2.7,2.9,43,0.00,,---,0.00,VWS V14.00,2013-01-13 04:53:00,
2013-01-12 23:54:00,48.0,26.6,30.12,SE,135,1.6,2.7,43,0.00,,---,0.00,VWS V14.00,2013-01-13 04:54:00,
2013-01-12 23:56:00,48.0,26.6,30.12,SE,135,1.3,1.3,43,0.00,,---,0.00,VWS V14.00,2013-01-13 04:56:00,
2013-01-12 23:58:00,48.0,26.6,30.12,SE,135,2.7,2.7,43,0.00,,---,0.00,VWS V14.00,2013-01-13 04:58:00,